ARG2563 SPJC-NZAA
Flight info
| Callsign | ARG2563 |
|---|---|
| Flight time | 12h 58m |
| Altitude | 30000 |
| Route | TISLI DCT 14S080W 21S090W/N0498F320 27S100W 32S110W/N0492F340 36S120W 39S130W 41S140W 42S150W/N0478F360 42S160W 41S170W DCT DODKU |
| Aircraft | B77W/H-SDE1E2E3FGHIJ2J3J4J5M1RWXY/LB1D1 |
Departure
| Time | 2026-05-07 04:36 |
|---|---|
| Airport | Jorge Chávez International Airport (SPJC) |
Arrival
| Time | 2026-05-07 17:35 |
|---|---|
| Airport | Auckland International Airport (NZAA) |
| Time | Latitude | Longitude | Altitude | Speed | Heading |
|---|---|---|---|---|---|
| 2026-05-07 04:22 | -12.02311 | -77.10972 | 96 ft | 0 kts | 64° |
| 2026-05-07 04:29 | -12.02311 | -77.10973 | 96 ft | 1 kts | 64° |
| 2026-05-07 04:29 | -12.02322 | -77.10995 | 96 ft | 4 kts | 64° |
| 2026-05-07 04:30 | -12.02334 | -77.11019 | 96 ft | 4 kts | 53° |
| 2026-05-07 04:30 | -12.02353 | -77.11037 | 96 ft | 4 kts | 18° |
| 2026-05-07 04:30 | -12.02378 | -77.11038 | 96 ft | 4 kts | 340° |
| 2026-05-07 04:30 | -12.02386 | -77.11035 | 96 ft | 0 kts | 334° |
| 2026-05-07 04:32 | -12.02377 | -77.11044 | 96 ft | 5 kts | 314° |
| 2026-05-07 04:32 | -12.02355 | -77.11111 | 98 ft | 15 kts | 294° |
| 2026-05-07 04:33 | -12.02246 | -77.11196 | 95 ft | 24 kts | 331° |
| 2026-05-07 04:33 | -12.02069 | -77.11299 | 89 ft | 33 kts | 334° |
| 2026-05-07 04:33 | -12.01850 | -77.11396 | 83 ft | 34 kts | 336° |
| 2026-05-07 04:33 | -12.01641 | -77.11494 | 69 ft | 32 kts | 334° |
| 2026-05-07 04:34 | -12.01447 | -77.11589 | 65 ft | 30 kts | 334° |
| 2026-05-07 04:34 | -12.01260 | -77.11683 | 69 ft | 30 kts | 333° |
| 2026-05-07 04:34 | -12.01076 | -77.11776 | 61 ft | 30 kts | 335° |
| 2026-05-07 04:34 | -12.00885 | -77.11865 | 58 ft | 30 kts | 334° |
| 2026-05-07 04:35 | -12.00709 | -77.11967 | 55 ft | 28 kts | 307° |
| 2026-05-07 04:35 | -12.00792 | -77.12098 | 56 ft | 30 kts | 175° |
| 2026-05-07 04:35 | -12.01054 | -77.11991 | 57 ft | 58 kts | 154° |
| 2026-05-07 04:35 | -12.01633 | -77.11702 | 60 ft | 126 kts | 153° |
| 2026-05-07 04:36 | -12.02616 | -77.11219 | 99 ft | 184 kts | 155° |
| 2026-05-07 04:36 | -12.03899 | -77.10622 | 226 ft | 214 kts | 156° |
| 2026-05-07 04:36 | -12.05248 | -77.10003 | 877 ft | 209 kts | 156° |
| 2026-05-07 04:36 | -12.06539 | -77.09408 | 1730 ft | 197 kts | 154° |
| 2026-05-07 04:37 | -12.07790 | -77.08759 | 2088 ft | 212 kts | 153° |
| 2026-05-07 04:37 | -12.09139 | -77.08053 | 2262 ft | 229 kts | 153° |
| 2026-05-07 04:37 | -12.10610 | -77.07302 | 2531 ft | 242 kts | 154° |
| 2026-05-07 04:37 | -12.12143 | -77.06528 | 2998 ft | 250 kts | 153° |
| 2026-05-07 04:38 | -12.13808 | -77.05931 | 3268 ft | 260 kts | 179° |
| 2026-05-07 04:38 | -12.15558 | -77.06352 | 3676 ft | 263 kts | 212° |
| 2026-05-07 04:38 | -12.16862 | -77.07654 | 4158 ft | 267 kts | 240° |
| 2026-05-07 04:38 | -12.17450 | -77.09455 | 4641 ft | 270 kts | 264° |
| 2026-05-07 04:39 | -12.17404 | -77.11379 | 5186 ft | 272 kts | 277° |
| 2026-05-07 04:39 | -12.17121 | -77.13305 | 5714 ft | 275 kts | 279° |
| 2026-05-07 04:39 | -12.16803 | -77.15239 | 6015 ft | 278 kts | 279° |
| 2026-05-07 04:39 | -12.16494 | -77.17200 | 6018 ft | 279 kts | 278° |
| 2026-05-07 04:40 | -12.16207 | -77.19157 | 6520 ft | 279 kts | 278° |
| 2026-05-07 04:40 | -12.15930 | -77.21127 | 7044 ft | 281 kts | 277° |
| 2026-05-07 04:40 | -12.15656 | -77.23114 | 7505 ft | 284 kts | 277° |
| 2026-05-07 04:40 | -12.15354 | -77.25090 | 7941 ft | 285 kts | 285° |
| 2026-05-07 04:41 | -12.14436 | -77.26881 | 8237 ft | 290 kts | 316° |
| 2026-05-07 04:41 | -12.12802 | -77.28078 | 8601 ft | 290 kts | 332° |
| 2026-05-07 04:41 | -12.11002 | -77.29067 | 8975 ft | 295 kts | 332° |
| 2026-05-07 04:41 | -12.09192 | -77.30063 | 9420 ft | 297 kts | 332° |
| 2026-05-07 04:42 | -12.07368 | -77.31068 | 9875 ft | 298 kts | 332° |
| 2026-05-07 04:42 | -12.05539 | -77.32081 | 10339 ft | 300 kts | 332° |
| 2026-05-07 04:42 | -12.03729 | -77.33087 | 10772 ft | 302 kts | 332° |
| 2026-05-07 04:42 | -12.01839 | -77.34140 | 10956 ft | 317 kts | 332° |
| 2026-05-07 04:43 | -11.99899 | -77.35317 | 11057 ft | 330 kts | 320° |
| 2026-05-07 04:43 | -11.98427 | -77.37170 | 11170 ft | 344 kts | 294° |
| 2026-05-07 04:43 | -11.97862 | -77.39578 | 11298 ft | 358 kts | 268° |
| 2026-05-07 04:43 | -11.98387 | -77.42088 | 11413 ft | 371 kts | 242° |
| 2026-05-07 04:44 | -11.99860 | -77.44283 | 11551 ft | 380 kts | 230° |
| 2026-05-07 04:44 | -12.01562 | -77.46385 | 11882 ft | 390 kts | 229° |
| 2026-05-07 04:44 | -12.03331 | -77.48529 | 12392 ft | 395 kts | 229° |
| 2026-05-07 04:44 | -12.05081 | -77.50652 | 12975 ft | 398 kts | 229° |
| 2026-05-07 04:45 | -12.06883 | -77.52860 | 13580 ft | 400 kts | 229° |
| 2026-05-07 04:45 | -12.08641 | -77.55036 | 14143 ft | 403 kts | 230° |
| 2026-05-07 04:45 | -12.10425 | -77.57259 | 14678 ft | 407 kts | 230° |
| 2026-05-07 04:45 | -12.12222 | -77.59513 | 15184 ft | 410 kts | 230° |
| 2026-05-07 04:46 | -12.14027 | -77.61786 | 15707 ft | 413 kts | 230° |
| 2026-05-07 04:46 | -12.15844 | -77.64079 | 16210 ft | 416 kts | 230° |
| 2026-05-07 04:46 | -12.17671 | -77.66391 | 16702 ft | 419 kts | 230° |
| 2026-05-07 04:46 | -12.19510 | -77.68720 | 17177 ft | 422 kts | 230° |
| 2026-05-07 04:47 | -12.21363 | -77.71066 | 17634 ft | 426 kts | 230° |
| 2026-05-07 04:47 | -12.23232 | -77.73432 | 18101 ft | 428 kts | 230° |
| 2026-05-07 04:47 | -12.25112 | -77.75810 | 18564 ft | 431 kts | 230° |
| 2026-05-07 04:47 | -12.27003 | -77.78205 | 19001 ft | 434 kts | 231° |
| 2026-05-07 04:48 | -12.28908 | -77.80618 | 19436 ft | 437 kts | 231° |
| 2026-05-07 04:48 | -12.30824 | -77.83045 | 19872 ft | 440 kts | 231° |
| 2026-05-07 04:48 | -12.32751 | -77.85488 | 20286 ft | 443 kts | 231° |
| 2026-05-07 04:48 | -12.34693 | -77.87951 | 20685 ft | 446 kts | 231° |
| 2026-05-07 04:49 | -12.36646 | -77.90427 | 21068 ft | 449 kts | 231° |
| 2026-05-07 04:49 | -12.38611 | -77.92918 | 21460 ft | 451 kts | 231° |
| 2026-05-07 04:49 | -12.40586 | -77.95423 | 21845 ft | 453 kts | 231° |
| 2026-05-07 04:49 | -12.42545 | -77.97911 | 22208 ft | 456 kts | 231° |
| 2026-05-07 04:50 | -12.44542 | -78.00446 | 22584 ft | 459 kts | 231° |
| 2026-05-07 04:50 | -12.46549 | -78.02994 | 22965 ft | 460 kts | 231° |
| 2026-05-07 04:50 | -12.48566 | -78.05555 | 23330 ft | 462 kts | 231° |
| 2026-05-07 04:50 | -12.50591 | -78.08126 | 23659 ft | 465 kts | 231° |
| 2026-05-07 04:51 | -12.52626 | -78.10712 | 23977 ft | 468 kts | 231° |
| 2026-05-07 04:51 | -12.54675 | -78.13316 | 24292 ft | 470 kts | 231° |
| 2026-05-07 04:51 | -12.56733 | -78.15933 | 24589 ft | 473 kts | 231° |
| 2026-05-07 04:51 | -12.58801 | -78.18563 | 24869 ft | 476 kts | 231° |
| 2026-05-07 04:52 | -12.60859 | -78.21180 | 25169 ft | 478 kts | 232° |
| 2026-05-07 04:52 | -12.62948 | -78.23839 | 25458 ft | 480 kts | 232° |
| 2026-05-07 04:52 | -12.65045 | -78.26507 | 25718 ft | 483 kts | 232° |
| 2026-05-07 04:52 | -12.67155 | -78.29194 | 25975 ft | 486 kts | 232° |
| 2026-05-07 04:53 | -12.69277 | -78.31897 | 26252 ft | 488 kts | 232° |
| 2026-05-07 04:53 | -12.71406 | -78.34611 | 26526 ft | 490 kts | 232° |
| 2026-05-07 04:53 | -12.73546 | -78.37337 | 26771 ft | 492 kts | 232° |
| 2026-05-07 04:53 | -12.75697 | -78.40078 | 27002 ft | 495 kts | 232° |
| 2026-05-07 04:54 | -12.77855 | -78.42831 | 27253 ft | 497 kts | 232° |
| 2026-05-07 04:54 | -12.80022 | -78.45593 | 27479 ft | 499 kts | 232° |
| 2026-05-07 04:54 | -12.82204 | -78.48376 | 27704 ft | 502 kts | 233° |
| 2026-05-07 04:54 | -12.84398 | -78.51177 | 27938 ft | 504 kts | 233° |
| 2026-05-07 04:55 | -12.86597 | -78.53985 | 28167 ft | 505 kts | 233° |
| 2026-05-07 04:55 | -12.88802 | -78.56801 | 28381 ft | 507 kts | 233° |
| 2026-05-07 04:55 | -12.90996 | -78.59605 | 28585 ft | 510 kts | 233° |
| 2026-05-07 04:55 | -12.93218 | -78.62444 | 28763 ft | 512 kts | 233° |
| 2026-05-07 04:56 | -12.95452 | -78.65301 | 28979 ft | 513 kts | 233° |
| 2026-05-07 04:56 | -12.97689 | -78.68161 | 29124 ft | 516 kts | 233° |
| 2026-05-07 04:56 | -12.99941 | -78.71040 | 29291 ft | 518 kts | 233° |
| 2026-05-07 04:56 | -13.02195 | -78.73925 | 29507 ft | 518 kts | 234° |
| 2026-05-07 04:57 | -13.04447 | -78.76807 | 29784 ft | 518 kts | 234° |
| 2026-05-07 04:57 | -13.06706 | -78.79700 | 29948 ft | 519 kts | 234° |
| 2026-05-07 04:57 | -13.11187 | -78.85438 | 30016 ft | 518 kts | 234° |
| 2026-05-07 04:58 | -13.15697 | -78.91218 | 30005 ft | 518 kts | 234° |
| 2026-05-07 04:58 | -13.20208 | -78.97000 | 30004 ft | 518 kts | 234° |
| 2026-05-07 04:59 | -13.24712 | -79.02782 | 30005 ft | 518 kts | 234° |
| 2026-05-07 04:59 | -13.29185 | -79.08525 | 30024 ft | 518 kts | 234° |
| 2026-05-07 05:00 | -13.33691 | -79.14319 | 30017 ft | 517 kts | 234° |
| 2026-05-07 05:00 | -13.38167 | -79.20074 | 30012 ft | 518 kts | 234° |
| 2026-05-07 05:01 | -13.42677 | -79.25881 | 30003 ft | 518 kts | 234° |
| 2026-05-07 05:01 | -13.47153 | -79.31646 | 30011 ft | 518 kts | 234° |
| 2026-05-07 05:02 | -13.51656 | -79.37447 | 30003 ft | 519 kts | 234° |
| 2026-05-07 05:02 | -13.56153 | -79.43245 | 30001 ft | 518 kts | 234° |
| 2026-05-07 05:03 | -13.60637 | -79.49032 | 30018 ft | 518 kts | 234° |
| 2026-05-07 05:03 | -13.65099 | -79.54792 | 30018 ft | 519 kts | 234° |
| 2026-05-07 05:04 | -13.69601 | -79.60610 | 30005 ft | 519 kts | 234° |
| 2026-05-07 05:04 | -13.74091 | -79.66418 | 29998 ft | 518 kts | 234° |
| 2026-05-07 05:05 | -13.78580 | -79.72229 | 30025 ft | 518 kts | 234° |
| 2026-05-07 05:05 | -13.83045 | -79.78003 | 30062 ft | 518 kts | 235° |
| 2026-05-07 05:06 | -13.87539 | -79.83824 | 30061 ft | 518 kts | 235° |
| 2026-05-07 05:06 | -13.92031 | -79.89650 | 30066 ft | 518 kts | 235° |
| 2026-05-07 05:07 | -13.96510 | -79.95465 | 30065 ft | 518 kts | 235° |
| 2026-05-07 05:07 | -14.00959 | -80.01247 | 30074 ft | 518 kts | 235° |
| 2026-05-07 05:08 | -14.05381 | -80.07118 | 30074 ft | 518 kts | 236° |
| 2026-05-07 05:08 | -14.09772 | -80.13002 | 30070 ft | 517 kts | 236° |
| 2026-05-07 05:09 | -14.14138 | -80.18856 | 30078 ft | 518 kts | 236° |
| 2026-05-07 05:09 | -14.18523 | -80.24728 | 30072 ft | 517 kts | 236° |
| 2026-05-07 05:10 | -14.22916 | -80.30605 | 30074 ft | 516 kts | 236° |
| 2026-05-07 05:10 | -14.27300 | -80.36472 | 30074 ft | 516 kts | 236° |
| 2026-05-07 05:11 | -14.31674 | -80.42336 | 30072 ft | 516 kts | 236° |
| 2026-05-07 05:11 | -14.36023 | -80.48157 | 30072 ft | 515 kts | 236° |
| 2026-05-07 05:12 | -14.40392 | -80.54018 | 30073 ft | 514 kts | 236° |
| 2026-05-07 05:12 | -14.44752 | -80.59874 | 30075 ft | 513 kts | 236° |
| 2026-05-07 05:13 | -14.49079 | -80.65689 | 30075 ft | 513 kts | 236° |
| 2026-05-07 05:13 | -14.53416 | -80.71520 | 30073 ft | 511 kts | 236° |
| 2026-05-07 05:14 | -14.57754 | -80.77363 | 30078 ft | 511 kts | 236° |
| 2026-05-07 05:14 | -14.62053 | -80.83152 | 30073 ft | 511 kts | 236° |
| 2026-05-07 05:15 | -14.66314 | -80.88895 | 30075 ft | 511 kts | 236° |
| 2026-05-07 05:15 | -14.70631 | -80.94720 | 30071 ft | 510 kts | 236° |
| 2026-05-07 05:16 | -14.74926 | -81.00507 | 30075 ft | 509 kts | 236° |
| 2026-05-07 05:16 | -14.79246 | -81.06343 | 30072 ft | 509 kts | 237° |
| 2026-05-07 05:17 | -14.83542 | -81.12149 | 30073 ft | 508 kts | 237° |
| 2026-05-07 05:17 | -14.87817 | -81.17924 | 30075 ft | 508 kts | 237° |
| 2026-05-07 05:18 | -14.92089 | -81.23717 | 30071 ft | 507 kts | 237° |
| 2026-05-07 05:18 | -14.96387 | -81.29536 | 30078 ft | 506 kts | 237° |
| 2026-05-07 05:19 | -15.00657 | -81.35324 | 30096 ft | 506 kts | 237° |
| 2026-05-07 05:19 | -15.04943 | -81.41133 | 30109 ft | 506 kts | 237° |
| 2026-05-07 05:20 | -15.09185 | -81.46891 | 30091 ft | 504 kts | 237° |
| 2026-05-07 05:20 | -15.13431 | -81.52662 | 30113 ft | 504 kts | 237° |
| 2026-05-07 05:21 | -15.19096 | -81.60366 | 30097 ft | 503 kts | 237° |
| 2026-05-07 05:22 | -15.24008 | -81.67050 | 30113 ft | 502 kts | 237° |
| 2026-05-07 05:22 | -15.27526 | -81.71842 | 30095 ft | 501 kts | 237° |
| 2026-05-07 05:23 | -15.32429 | -81.78522 | 30108 ft | 500 kts | 237° |
| 2026-05-07 05:23 | -15.35942 | -81.83316 | 30113 ft | 500 kts | 237° |
| 2026-05-07 05:24 | -15.40152 | -81.89066 | 30115 ft | 499 kts | 237° |
| 2026-05-07 05:24 | -15.44357 | -81.94807 | 30112 ft | 498 kts | 237° |
| 2026-05-07 05:25 | -15.48516 | -82.00490 | 30099 ft | 497 kts | 237° |
| 2026-05-07 05:25 | -15.52690 | -82.06199 | 30110 ft | 496 kts | 237° |
| 2026-05-07 05:26 | -15.56855 | -82.11903 | 30114 ft | 496 kts | 237° |
| 2026-05-07 05:26 | -15.61001 | -82.17586 | 30115 ft | 495 kts | 237° |
| 2026-05-07 05:27 | -15.65164 | -82.23297 | 30125 ft | 495 kts | 237° |
| 2026-05-07 05:27 | -15.69334 | -82.29018 | 30122 ft | 495 kts | 237° |
| 2026-05-07 05:28 | -15.73462 | -82.34687 | 30121 ft | 495 kts | 237° |
| 2026-05-07 05:28 | -15.77603 | -82.40376 | 30123 ft | 495 kts | 237° |
| 2026-05-07 05:29 | -15.81781 | -82.46123 | 30116 ft | 495 kts | 237° |
| 2026-05-07 05:29 | -15.85903 | -82.51797 | 30125 ft | 495 kts | 237° |
| 2026-05-07 05:30 | -15.90069 | -82.57534 | 30119 ft | 495 kts | 237° |
| 2026-05-07 05:30 | -15.94199 | -82.63229 | 30125 ft | 495 kts | 237° |
| 2026-05-07 05:31 | -15.98332 | -82.68930 | 30117 ft | 495 kts | 237° |
| 2026-05-07 05:31 | -16.02484 | -82.74663 | 30124 ft | 493 kts | 238° |
| 2026-05-07 05:32 | -16.06600 | -82.80349 | 30122 ft | 491 kts | 238° |
| 2026-05-07 05:32 | -16.10709 | -82.86030 | 30130 ft | 491 kts | 238° |
| 2026-05-07 05:33 | -16.14790 | -82.91680 | 30130 ft | 491 kts | 238° |
| 2026-05-07 05:33 | -16.18894 | -82.97366 | 30126 ft | 491 kts | 238° |
| 2026-05-07 05:34 | -16.23009 | -83.03068 | 30113 ft | 491 kts | 238° |
| 2026-05-07 05:34 | -16.27102 | -83.08745 | 30127 ft | 491 kts | 238° |
| 2026-05-07 05:35 | -16.31180 | -83.14405 | 30118 ft | 491 kts | 238° |
| 2026-05-07 05:35 | -16.35270 | -83.20089 | 30121 ft | 491 kts | 238° |
| 2026-05-07 05:36 | -16.39364 | -83.25782 | 30118 ft | 491 kts | 238° |
| 2026-05-07 05:36 | -16.43444 | -83.31461 | 30121 ft | 491 kts | 238° |
| 2026-05-07 05:37 | -16.47546 | -83.37173 | 30120 ft | 490 kts | 238° |
| 2026-05-07 05:37 | -16.51629 | -83.42863 | 30119 ft | 491 kts | 238° |
| 2026-05-07 05:38 | -16.55713 | -83.48564 | 30118 ft | 490 kts | 238° |
| 2026-05-07 05:38 | -16.59797 | -83.54263 | 30118 ft | 490 kts | 238° |
| 2026-05-07 05:39 | -16.63862 | -83.59939 | 30120 ft | 490 kts | 238° |
| 2026-05-07 05:39 | -16.67934 | -83.65635 | 30124 ft | 489 kts | 238° |
| 2026-05-07 05:40 | -16.71981 | -83.71298 | 30099 ft | 490 kts | 238° |
| 2026-05-07 05:40 | -16.76068 | -83.77023 | 30026 ft | 489 kts | 238° |
| 2026-05-07 05:41 | -16.80106 | -83.82683 | 30020 ft | 488 kts | 238° |
| 2026-05-07 05:41 | -16.84152 | -83.88358 | 30015 ft | 488 kts | 238° |
| 2026-05-07 05:42 | -16.88201 | -83.94043 | 30003 ft | 488 kts | 238° |
| 2026-05-07 05:42 | -16.92268 | -83.99757 | 30000 ft | 487 kts | 238° |
| 2026-05-07 05:43 | -16.96290 | -84.05413 | 30024 ft | 486 kts | 238° |
| 2026-05-07 05:43 | -17.00311 | -84.11072 | 30019 ft | 485 kts | 239° |
| 2026-05-07 05:44 | -17.04311 | -84.16706 | 30007 ft | 485 kts | 239° |
| 2026-05-07 05:44 | -17.08334 | -84.22377 | 30028 ft | 484 kts | 239° |
| 2026-05-07 05:45 | -17.12353 | -84.28044 | 30017 ft | 484 kts | 239° |
| 2026-05-07 05:45 | -17.16344 | -84.33681 | 30000 ft | 483 kts | 239° |
| 2026-05-07 05:46 | -17.20336 | -84.39324 | 30004 ft | 483 kts | 239° |
| 2026-05-07 05:46 | -17.24317 | -84.44955 | 30002 ft | 483 kts | 239° |
| 2026-05-07 05:47 | -17.28313 | -84.50612 | 29999 ft | 481 kts | 239° |
| 2026-05-07 05:47 | -17.32300 | -84.56261 | 30005 ft | 482 kts | 239° |
| 2026-05-07 05:48 | -17.36278 | -84.61902 | 30018 ft | 482 kts | 239° |
| 2026-05-07 05:48 | -17.40229 | -84.67508 | 30002 ft | 482 kts | 239° |
| 2026-05-07 05:49 | -17.44230 | -84.73191 | 30011 ft | 482 kts | 239° |
| 2026-05-07 05:49 | -17.48176 | -84.78799 | 30002 ft | 482 kts | 239° |
| 2026-05-07 05:50 | -17.52163 | -84.84469 | 30002 ft | 481 kts | 239° |
| 2026-05-07 05:50 | -17.56122 | -84.90105 | 30005 ft | 481 kts | 239° |
| 2026-05-07 05:51 | -17.60085 | -84.95753 | 30006 ft | 481 kts | 239° |
| 2026-05-07 05:51 | -17.64056 | -85.01417 | 30000 ft | 481 kts | 239° |
| 2026-05-07 05:52 | -17.68026 | -85.07088 | 30006 ft | 481 kts | 239° |
| 2026-05-07 05:52 | -17.71987 | -85.12747 | 30014 ft | 481 kts | 239° |
| 2026-05-07 05:53 | -17.75940 | -85.18397 | 30010 ft | 481 kts | 239° |
| 2026-05-07 05:53 | -17.79883 | -85.24038 | 29998 ft | 480 kts | 239° |
| 2026-05-07 05:54 | -17.83836 | -85.29698 | 30004 ft | 480 kts | 239° |
| 2026-05-07 05:54 | -17.87773 | -85.35344 | 30009 ft | 479 kts | 239° |
| 2026-05-07 05:55 | -17.91688 | -85.40961 | 30003 ft | 479 kts | 239° |
| 2026-05-07 05:55 | -17.95643 | -85.46641 | 30001 ft | 480 kts | 239° |
| 2026-05-07 05:56 | -17.99589 | -85.52311 | 30018 ft | 480 kts | 239° |
| 2026-05-07 05:56 | -18.03519 | -85.57966 | 30020 ft | 479 kts | 239° |
| 2026-05-07 05:57 | -18.07415 | -85.63577 | 30017 ft | 478 kts | 239° |
| 2026-05-07 05:57 | -18.11340 | -85.69232 | 30002 ft | 478 kts | 239° |
| 2026-05-07 05:58 | -18.15282 | -85.74914 | 30000 ft | 478 kts | 239° |
| 2026-05-07 05:58 | -18.19191 | -85.80556 | 30018 ft | 478 kts | 239° |
| 2026-05-07 05:59 | -18.23089 | -85.86189 | 30019 ft | 478 kts | 239° |
| 2026-05-07 05:59 | -18.27002 | -85.91848 | 30011 ft | 478 kts | 239° |
| 2026-05-07 06:00 | -18.30904 | -85.97493 | 30020 ft | 478 kts | 239° |
| 2026-05-07 06:00 | -18.34814 | -86.03157 | 30023 ft | 478 kts | 239° |
| 2026-05-07 06:01 | -18.38719 | -86.08819 | 30023 ft | 479 kts | 239° |
| 2026-05-07 06:01 | -18.42635 | -86.14501 | 30594 ft | 473 kts | 239° |
| 2026-05-07 06:01 | -18.44545 | -86.17268 | 31233 ft | 466 kts | 239° |
| 2026-05-07 06:02 | -18.46437 | -86.20013 | 31582 ft | 465 kts | 239° |
| 2026-05-07 06:02 | -18.48354 | -86.22799 | 31815 ft | 466 kts | 239° |
| 2026-05-07 06:02 | -18.50250 | -86.25560 | 31933 ft | 467 kts | 239° |
| 2026-05-07 06:03 | -18.54066 | -86.31117 | 32024 ft | 467 kts | 239° |
| 2026-05-07 06:03 | -18.57847 | -86.36620 | 32029 ft | 466 kts | 239° |
| 2026-05-07 06:04 | -18.61645 | -86.42154 | 32038 ft | 466 kts | 239° |
| 2026-05-07 06:04 | -18.65448 | -86.47708 | 32039 ft | 466 kts | 239° |
| 2026-05-07 06:05 | -18.69225 | -86.53223 | 32035 ft | 466 kts | 239° |
| 2026-05-07 06:05 | -18.73012 | -86.58753 | 32038 ft | 466 kts | 239° |
| 2026-05-07 06:06 | -18.76824 | -86.64328 | 32036 ft | 466 kts | 239° |
| 2026-05-07 06:06 | -18.80603 | -86.69860 | 32038 ft | 466 kts | 239° |
| 2026-05-07 06:07 | -18.84395 | -86.75415 | 32037 ft | 467 kts | 239° |
| 2026-05-07 06:07 | -18.88185 | -86.80975 | 32036 ft | 467 kts | 239° |
| 2026-05-07 06:08 | -18.91975 | -86.86536 | 32036 ft | 467 kts | 239° |
| 2026-05-07 06:08 | -18.95784 | -86.92129 | 32036 ft | 467 kts | 239° |
| 2026-05-07 06:09 | -18.99564 | -86.97685 | 32036 ft | 467 kts | 239° |
| 2026-05-07 06:09 | -19.03380 | -87.03307 | 32040 ft | 468 kts | 239° |
| 2026-05-07 06:10 | -19.07150 | -87.08860 | 32035 ft | 467 kts | 239° |
| 2026-05-07 06:10 | -19.10941 | -87.14444 | 32037 ft | 467 kts | 239° |
| 2026-05-07 06:11 | -19.14719 | -87.20021 | 32035 ft | 468 kts | 239° |
| 2026-05-07 06:11 | -19.18505 | -87.25617 | 32037 ft | 469 kts | 239° |
| 2026-05-07 06:12 | -19.21692 | -87.30327 | 32039 ft | 469 kts | 238° |
| 2026-05-07 06:12 | -19.26094 | -87.36835 | 32037 ft | 468 kts | 238° |
| 2026-05-07 06:13 | -19.29263 | -87.41528 | 32038 ft | 469 kts | 238° |
| 2026-05-07 06:13 | -19.33054 | -87.47149 | 32037 ft | 469 kts | 238° |
| 2026-05-07 06:14 | -19.36854 | -87.52787 | 32038 ft | 469 kts | 238° |
| 2026-05-07 06:14 | -19.40629 | -87.58391 | 32035 ft | 470 kts | 238° |
| 2026-05-07 06:15 | -19.44444 | -87.64062 | 32039 ft | 471 kts | 238° |
| 2026-05-07 06:15 | -19.48227 | -87.69688 | 32037 ft | 471 kts | 238° |
| 2026-05-07 06:16 | -19.52032 | -87.75353 | 32045 ft | 471 kts | 238° |
| 2026-05-07 06:16 | -19.55817 | -87.80997 | 32046 ft | 471 kts | 238° |
| 2026-05-07 06:17 | -19.59616 | -87.86662 | 32045 ft | 471 kts | 237° |
| 2026-05-07 06:17 | -19.63404 | -87.92317 | 32047 ft | 471 kts | 237° |
| 2026-05-07 06:18 | -19.67200 | -87.97992 | 32045 ft | 471 kts | 237° |
| 2026-05-07 06:18 | -19.71001 | -88.03678 | 32046 ft | 472 kts | 237° |
| 2026-05-07 06:19 | -19.74782 | -88.09339 | 32046 ft | 473 kts | 237° |
| 2026-05-07 06:19 | -19.78583 | -88.15039 | 32046 ft | 472 kts | 237° |
| 2026-05-07 06:20 | -19.82380 | -88.20737 | 32047 ft | 472 kts | 237° |
| 2026-05-07 06:20 | -19.86190 | -88.26455 | 32046 ft | 472 kts | 237° |
| 2026-05-07 06:21 | -19.89970 | -88.32135 | 32047 ft | 472 kts | 237° |
| 2026-05-07 06:21 | -19.93755 | -88.37830 | 32046 ft | 472 kts | 237° |
| 2026-05-07 06:22 | -19.97553 | -88.43552 | 32046 ft | 472 kts | 237° |
| 2026-05-07 06:22 | -20.03225 | -88.52104 | 32045 ft | 473 kts | 237° |
| 2026-05-07 06:23 | -20.07032 | -88.57851 | 32047 ft | 474 kts | 237° |
| 2026-05-07 06:23 | -20.10824 | -88.63582 | 32046 ft | 474 kts | 237° |
| 2026-05-07 06:24 | -20.14612 | -88.69311 | 32047 ft | 474 kts | 237° |
| 2026-05-07 06:24 | -20.18390 | -88.75034 | 32045 ft | 475 kts | 237° |
| 2026-05-07 06:25 | -20.22200 | -88.80806 | 32047 ft | 475 kts | 237° |
| 2026-05-07 06:25 | -20.26004 | -88.86575 | 32045 ft | 475 kts | 237° |
| 2026-05-07 06:26 | -20.29775 | -88.92301 | 32053 ft | 475 kts | 237° |
| 2026-05-07 06:26 | -20.33585 | -88.98092 | 32057 ft | 476 kts | 237° |
| 2026-05-07 06:27 | -20.37368 | -89.03849 | 32055 ft | 475 kts | 237° |
| 2026-05-07 06:27 | -20.41163 | -89.09629 | 32058 ft | 476 kts | 237° |
| 2026-05-07 06:28 | -20.44960 | -89.15418 | 32059 ft | 476 kts | 237° |
| 2026-05-07 06:28 | -20.48771 | -89.21235 | 32074 ft | 476 kts | 237° |
| 2026-05-07 06:29 | -20.52533 | -89.26979 | 32072 ft | 476 kts | 237° |
| 2026-05-07 06:29 | -20.56331 | -89.32787 | 32077 ft | 476 kts | 237° |
| 2026-05-07 06:30 | -20.60107 | -89.38567 | 32073 ft | 476 kts | 237° |
| 2026-05-07 06:30 | -20.63904 | -89.44386 | 32074 ft | 476 kts | 237° |
| 2026-05-07 06:31 | -20.67674 | -89.50169 | 32073 ft | 476 kts | 237° |
| 2026-05-07 06:31 | -20.71461 | -89.55983 | 32075 ft | 477 kts | 237° |
| 2026-05-07 06:32 | -20.75267 | -89.61833 | 32079 ft | 477 kts | 237° |
| 2026-05-07 06:32 | -20.79037 | -89.67633 | 32084 ft | 477 kts | 237° |
| 2026-05-07 06:33 | -20.82820 | -89.73459 | 32083 ft | 477 kts | 237° |
| 2026-05-07 06:33 | -20.86588 | -89.79269 | 32083 ft | 477 kts | 237° |
| 2026-05-07 06:34 | -20.90374 | -89.85114 | 32084 ft | 477 kts | 237° |
| 2026-05-07 06:34 | -20.94140 | -89.90929 | 32082 ft | 477 kts | 237° |
| 2026-05-07 06:35 | -20.97918 | -89.96775 | 32085 ft | 477 kts | 237° |
| 2026-05-07 06:35 | -21.01716 | -90.02631 | 32082 ft | 478 kts | 236° |
| 2026-05-07 06:36 | -21.05545 | -90.08434 | 32083 ft | 478 kts | 236° |
| 2026-05-07 06:36 | -21.09369 | -90.14214 | 32084 ft | 478 kts | 236° |
| 2026-05-07 06:37 | -21.13219 | -90.20052 | 32083 ft | 478 kts | 236° |
| 2026-05-07 06:37 | -21.17041 | -90.25867 | 32083 ft | 478 kts | 236° |
| 2026-05-07 06:38 | -21.20856 | -90.31678 | 32084 ft | 478 kts | 236° |
| 2026-05-07 06:38 | -21.24686 | -90.37519 | 32083 ft | 478 kts | 236° |
| 2026-05-07 06:39 | -21.28500 | -90.43337 | 32082 ft | 478 kts | 236° |
| 2026-05-07 06:39 | -21.32305 | -90.49150 | 32084 ft | 478 kts | 236° |
| 2026-05-07 06:40 | -21.36117 | -90.54979 | 32084 ft | 478 kts | 236° |
| 2026-05-07 06:40 | -21.39947 | -90.60845 | 32076 ft | 478 kts | 236° |
| 2026-05-07 06:41 | -21.43769 | -90.66699 | 32073 ft | 478 kts | 236° |
| 2026-05-07 06:41 | -21.47570 | -90.72532 | 32074 ft | 478 kts | 236° |
| 2026-05-07 06:42 | -21.51361 | -90.78354 | 32074 ft | 478 kts | 236° |
| 2026-05-07 06:42 | -21.55178 | -90.84222 | 32073 ft | 478 kts | 237° |
| 2026-05-07 06:43 | -21.58977 | -90.90068 | 32075 ft | 478 kts | 237° |
| 2026-05-07 06:43 | -21.62770 | -90.95912 | 32074 ft | 478 kts | 237° |
| 2026-05-07 06:44 | -21.66573 | -91.01780 | 32074 ft | 477 kts | 237° |
| 2026-05-07 06:44 | -21.70370 | -91.07640 | 32074 ft | 477 kts | 237° |
| 2026-05-07 06:45 | -21.74145 | -91.13474 | 32074 ft | 477 kts | 237° |
| 2026-05-07 06:45 | -21.77924 | -91.19320 | 32073 ft | 477 kts | 237° |
| 2026-05-07 06:46 | -21.81720 | -91.25204 | 32075 ft | 477 kts | 237° |
| 2026-05-07 06:46 | -21.85496 | -91.31057 | 32074 ft | 477 kts | 237° |
| 2026-05-07 06:47 | -21.89278 | -91.36927 | 32079 ft | 477 kts | 237° |
| 2026-05-07 06:47 | -21.93051 | -91.42789 | 32088 ft | 476 kts | 237° |
| 2026-05-07 06:48 | -21.96828 | -91.48668 | 32081 ft | 476 kts | 237° |
| 2026-05-07 06:48 | -22.00573 | -91.54501 | 32083 ft | 476 kts | 237° |
| 2026-05-07 06:49 | -22.04368 | -91.60416 | 32084 ft | 479 kts | 236° |
| 2026-05-07 06:49 | -22.08161 | -91.66337 | 32085 ft | 480 kts | 236° |
| 2026-05-07 06:50 | -22.11948 | -91.72250 | 32081 ft | 478 kts | 237° |
| 2026-05-07 06:50 | -22.15710 | -91.78134 | 32085 ft | 477 kts | 237° |
| 2026-05-07 06:51 | -22.19473 | -91.84028 | 32083 ft | 477 kts | 237° |
| 2026-05-07 06:51 | -22.23240 | -91.89932 | 32083 ft | 477 kts | 237° |
| 2026-05-07 06:52 | -22.26988 | -91.95813 | 32083 ft | 477 kts | 237° |
| 2026-05-07 06:52 | -22.30744 | -92.01714 | 32083 ft | 478 kts | 237° |
| 2026-05-07 06:53 | -22.34504 | -92.07630 | 32084 ft | 479 kts | 237° |
| 2026-05-07 06:53 | -22.38273 | -92.13563 | 32083 ft | 479 kts | 237° |
| 2026-05-07 06:54 | -22.42041 | -92.19505 | 32084 ft | 480 kts | 237° |
| 2026-05-07 06:54 | -22.45838 | -92.25497 | 32093 ft | 482 kts | 236° |
| 2026-05-07 06:55 | -22.49604 | -92.31448 | 32093 ft | 483 kts | 236° |
| 2026-05-07 06:55 | -22.53427 | -92.37492 | 32092 ft | 485 kts | 236° |
| 2026-05-07 06:56 | -22.57210 | -92.43479 | 32082 ft | 487 kts | 236° |
| 2026-05-07 06:56 | -22.61058 | -92.49579 | 32093 ft | 488 kts | 236° |
| 2026-05-07 06:57 | -22.64878 | -92.55648 | 32092 ft | 490 kts | 236° |
| 2026-05-07 06:57 | -22.68701 | -92.61724 | 32090 ft | 491 kts | 236° |
| 2026-05-07 06:58 | -22.72550 | -92.67841 | 32092 ft | 493 kts | 236° |
| 2026-05-07 06:58 | -22.75791 | -92.72997 | 32092 ft | 494 kts | 236° |
| 2026-05-07 06:59 | -22.80288 | -92.80171 | 32092 ft | 495 kts | 236° |
| 2026-05-07 06:59 | -22.83519 | -92.85331 | 32096 ft | 497 kts | 236° |
| 2026-05-07 07:00 | -22.87391 | -92.91518 | 32092 ft | 498 kts | 236° |
| 2026-05-07 07:00 | -22.91286 | -92.97749 | 32092 ft | 499 kts | 235° |
| 2026-05-07 07:01 | -22.95186 | -93.03995 | 32093 ft | 500 kts | 235° |
| 2026-05-07 07:01 | -22.99097 | -93.10266 | 32095 ft | 501 kts | 235° |
| 2026-05-07 07:02 | -23.03009 | -93.16548 | 32091 ft | 502 kts | 235° |
| 2026-05-07 07:02 | -23.06924 | -93.22843 | 32093 ft | 503 kts | 235° |
| 2026-05-07 07:03 | -23.10828 | -93.29127 | 32095 ft | 504 kts | 235° |
| 2026-05-07 07:03 | -23.14741 | -93.35433 | 32118 ft | 506 kts | 235° |
| 2026-05-07 07:04 | -23.19010 | -93.42319 | 32101 ft | 507 kts | 235° |
| 2026-05-07 07:04 | -23.22951 | -93.48690 | 32097 ft | 509 kts | 235° |
| 2026-05-07 07:05 | -23.26906 | -93.55086 | 32103 ft | 510 kts | 235° |
| 2026-05-07 07:05 | -23.30863 | -93.61498 | 32113 ft | 512 kts | 235° |
| 2026-05-07 07:06 | -23.34843 | -93.67952 | 32120 ft | 514 kts | 234° |
| 2026-05-07 07:06 | -23.38841 | -93.74443 | 32100 ft | 516 kts | 234° |
| 2026-05-07 07:07 | -23.42826 | -93.80920 | 32118 ft | 517 kts | 234° |
| 2026-05-07 07:07 | -23.46826 | -93.87434 | 32122 ft | 519 kts | 234° |
| 2026-05-07 07:08 | -23.50868 | -93.94022 | 32120 ft | 521 kts | 234° |
| 2026-05-07 07:08 | -23.54874 | -94.00560 | 32102 ft | 521 kts | 234° |
| 2026-05-07 07:09 | -23.58908 | -94.07152 | 32109 ft | 523 kts | 234° |
| 2026-05-07 07:09 | -23.62929 | -94.13732 | 32124 ft | 524 kts | 234° |
| 2026-05-07 07:10 | -23.66989 | -94.20386 | 32100 ft | 524 kts | 234° |
| 2026-05-07 07:10 | -23.71030 | -94.27016 | 32101 ft | 524 kts | 234° |
| 2026-05-07 07:11 | -23.75054 | -94.33630 | 32123 ft | 524 kts | 234° |
| 2026-05-07 07:11 | -23.79069 | -94.40235 | 32115 ft | 524 kts | 234° |
| 2026-05-07 07:12 | -23.83096 | -94.46868 | 32102 ft | 524 kts | 234° |
| 2026-05-07 07:12 | -23.87100 | -94.53472 | 32103 ft | 523 kts | 234° |
| 2026-05-07 07:13 | -23.91118 | -94.60108 | 32111 ft | 522 kts | 234° |
| 2026-05-07 07:13 | -23.95123 | -94.66728 | 32104 ft | 522 kts | 234° |
| 2026-05-07 07:14 | -23.99136 | -94.73377 | 32112 ft | 522 kts | 235° |
| 2026-05-07 07:14 | -24.03115 | -94.79972 | 32099 ft | 526 kts | 234° |
| 2026-05-07 07:15 | -24.07159 | -94.86686 | 32114 ft | 529 kts | 234° |
| 2026-05-07 07:15 | -24.11212 | -94.93431 | 32101 ft | 528 kts | 234° |
| 2026-05-07 07:16 | -24.15253 | -95.00159 | 32120 ft | 528 kts | 234° |
| 2026-05-07 07:16 | -24.19272 | -95.06859 | 32115 ft | 529 kts | 234° |
| 2026-05-07 07:17 | -24.23313 | -95.13602 | 32105 ft | 530 kts | 234° |
| 2026-05-07 07:17 | -24.27342 | -95.20338 | 32110 ft | 529 kts | 234° |
| 2026-05-07 07:18 | -24.31381 | -95.27101 | 32129 ft | 529 kts | 234° |
| 2026-05-07 07:18 | -24.35396 | -95.33832 | 32115 ft | 529 kts | 234° |
| 2026-05-07 07:19 | -24.39425 | -95.40596 | 32129 ft | 529 kts | 234° |
| 2026-05-07 07:19 | -24.43440 | -95.47347 | 32113 ft | 529 kts | 234° |
| 2026-05-07 07:20 | -24.47500 | -95.54179 | 32126 ft | 530 kts | 234° |
| 2026-05-07 07:20 | -24.51489 | -95.60904 | 32114 ft | 530 kts | 235° |
| 2026-05-07 07:21 | -24.54853 | -95.66583 | 32120 ft | 530 kts | 235° |
| 2026-05-07 07:21 | -24.59536 | -95.74498 | 32129 ft | 530 kts | 235° |
| 2026-05-07 07:22 | -24.63543 | -95.81280 | 32137 ft | 530 kts | 235° |
| 2026-05-07 07:22 | -24.66907 | -95.86982 | 32133 ft | 531 kts | 235° |
| 2026-05-07 07:23 | -24.70916 | -95.93785 | 32136 ft | 530 kts | 235° |
| 2026-05-07 07:23 | -24.74921 | -96.00590 | 32137 ft | 530 kts | 235° |
| 2026-05-07 07:24 | -24.78926 | -96.07409 | 32140 ft | 530 kts | 235° |
| 2026-05-07 07:24 | -24.82911 | -96.14202 | 32142 ft | 530 kts | 235° |
| 2026-05-07 07:25 | -24.88883 | -96.24397 | 32146 ft | 529 kts | 235° |
| 2026-05-07 07:26 | -24.92898 | -96.31264 | 32151 ft | 530 kts | 235° |
| 2026-05-07 07:26 | -24.96877 | -96.38079 | 32147 ft | 529 kts | 235° |
| 2026-05-07 07:27 | -25.00845 | -96.44887 | 32145 ft | 530 kts | 235° |
| 2026-05-07 07:27 | -25.04822 | -96.51724 | 32155 ft | 529 kts | 235° |
| 2026-05-07 07:28 | -25.08818 | -96.58594 | 32148 ft | 529 kts | 235° |
| 2026-05-07 07:28 | -25.12777 | -96.65412 | 32145 ft | 529 kts | 235° |
| 2026-05-07 07:29 | -25.16718 | -96.72208 | 32148 ft | 529 kts | 235° |
| 2026-05-07 07:29 | -25.20682 | -96.79061 | 32146 ft | 528 kts | 235° |
| 2026-05-07 07:30 | -25.24637 | -96.85906 | 32152 ft | 528 kts | 235° |
| 2026-05-07 07:30 | -25.28575 | -96.92730 | 32151 ft | 528 kts | 235° |
| 2026-05-07 07:31 | -25.32517 | -96.99569 | 32148 ft | 528 kts | 235° |
| 2026-05-07 07:31 | -25.36464 | -97.06427 | 32158 ft | 528 kts | 235° |
| 2026-05-07 07:32 | -25.40413 | -97.13299 | 32155 ft | 528 kts | 236° |
| 2026-05-07 07:32 | -25.44338 | -97.20144 | 32156 ft | 527 kts | 235° |
| 2026-05-07 07:33 | -25.48239 | -97.26947 | 32156 ft | 527 kts | 236° |
| 2026-05-07 07:33 | -25.52179 | -97.33833 | 32158 ft | 527 kts | 236° |
| 2026-05-07 07:34 | -25.56070 | -97.40649 | 32157 ft | 527 kts | 236° |
| 2026-05-07 07:34 | -25.59990 | -97.47520 | 32158 ft | 526 kts | 236° |
| 2026-05-07 07:35 | -25.63909 | -97.54396 | 32156 ft | 526 kts | 236° |
| 2026-05-07 07:35 | -25.67799 | -97.61236 | 32156 ft | 525 kts | 236° |
| 2026-05-07 07:36 | -25.71682 | -97.68075 | 32158 ft | 525 kts | 236° |
| 2026-05-07 07:36 | -25.75578 | -97.74948 | 32158 ft | 526 kts | 236° |
| 2026-05-07 07:37 | -25.79464 | -97.81808 | 32157 ft | 525 kts | 236° |
| 2026-05-07 07:37 | -25.83337 | -97.88656 | 32157 ft | 524 kts | 236° |
| 2026-05-07 07:38 | -25.87220 | -97.95536 | 32157 ft | 525 kts | 236° |
| 2026-05-07 07:38 | -25.91073 | -98.02371 | 32164 ft | 525 kts | 236° |
| 2026-05-07 07:39 | -25.94963 | -98.09282 | 32167 ft | 525 kts | 236° |
| 2026-05-07 07:39 | -25.98804 | -98.16116 | 32165 ft | 525 kts | 236° |
| 2026-05-07 07:40 | -26.02682 | -98.23027 | 32168 ft | 525 kts | 236° |
| 2026-05-07 07:40 | -26.06542 | -98.29918 | 32166 ft | 525 kts | 236° |
| 2026-05-07 07:41 | -26.10384 | -98.36780 | 32166 ft | 525 kts | 236° |
| 2026-05-07 07:41 | -26.14241 | -98.43685 | 32169 ft | 524 kts | 236° |
| 2026-05-07 07:42 | -26.18097 | -98.50596 | 32165 ft | 524 kts | 236° |
| 2026-05-07 07:42 | -26.21935 | -98.57485 | 32168 ft | 524 kts | 236° |
| 2026-05-07 07:43 | -26.25779 | -98.64401 | 32167 ft | 524 kts | 236° |
| 2026-05-07 07:43 | -26.29608 | -98.71298 | 32177 ft | 524 kts | 236° |
| 2026-05-07 07:44 | -26.33435 | -98.78200 | 32193 ft | 524 kts | 236° |
| 2026-05-07 07:44 | -26.37258 | -98.85108 | 32194 ft | 524 kts | 237° |
| 2026-05-07 07:45 | -26.41091 | -98.92045 | 32193 ft | 524 kts | 237° |
| 2026-05-07 07:45 | -26.44907 | -98.98954 | 32191 ft | 524 kts | 237° |
| 2026-05-07 07:46 | -26.48724 | -99.05878 | 32195 ft | 524 kts | 237° |
| 2026-05-07 07:46 | -26.52544 | -99.12825 | 32195 ft | 524 kts | 237° |
| 2026-05-07 07:47 | -26.56352 | -99.19753 | 32193 ft | 524 kts | 237° |
| 2026-05-07 07:47 | -26.60169 | -99.26715 | 32192 ft | 524 kts | 237° |
| 2026-05-07 07:48 | -26.63959 | -99.33638 | 32192 ft | 525 kts | 237° |
| 2026-05-07 07:48 | -26.67765 | -99.40597 | 32192 ft | 525 kts | 237° |
| 2026-05-07 07:49 | -26.71557 | -99.47546 | 32198 ft | 525 kts | 237° |
| 2026-05-07 07:49 | -26.75383 | -99.54561 | 32192 ft | 524 kts | 237° |
| 2026-05-07 07:50 | -26.79142 | -99.61470 | 32194 ft | 524 kts | 237° |
| 2026-05-07 07:50 | -26.82938 | -99.68458 | 32191 ft | 524 kts | 237° |
| 2026-05-07 07:51 | -26.86730 | -99.75444 | 32196 ft | 524 kts | 237° |
| 2026-05-07 07:51 | -26.90500 | -99.82404 | 32190 ft | 524 kts | 237° |
| 2026-05-07 07:52 | -26.94272 | -99.89382 | 32191 ft | 524 kts | 237° |
| 2026-05-07 07:52 | -26.98038 | -99.96358 | 32197 ft | 523 kts | 238° |
| 2026-05-07 07:53 | -27.01805 | -100.03292 | 32190 ft | 522 kts | 237° |
| 2026-05-07 07:53 | -27.05671 | -100.10165 | 32198 ft | 522 kts | 237° |
| 2026-05-07 07:54 | -27.09571 | -100.17054 | 32195 ft | 522 kts | 237° |
| 2026-05-07 07:54 | -27.13443 | -100.23935 | 32195 ft | 522 kts | 237° |
| 2026-05-07 07:55 | -27.17322 | -100.30869 | 32197 ft | 521 kts | 237° |
| 2026-05-07 07:55 | -27.21156 | -100.37742 | 32192 ft | 521 kts | 237° |
| 2026-05-07 07:56 | -27.24993 | -100.44626 | 32195 ft | 521 kts | 237° |
| 2026-05-07 07:56 | -27.28825 | -100.51511 | 32192 ft | 520 kts | 237° |
| 2026-05-07 07:57 | -27.32655 | -100.58403 | 32194 ft | 520 kts | 237° |
| 2026-05-07 07:57 | -27.36502 | -100.65334 | 32194 ft | 520 kts | 238° |
| 2026-05-07 07:58 | -27.40318 | -100.72224 | 32194 ft | 520 kts | 238° |
| 2026-05-07 07:58 | -27.44144 | -100.79143 | 32190 ft | 520 kts | 238° |
| 2026-05-07 07:59 | -27.47980 | -100.86086 | 32206 ft | 521 kts | 238° |
| 2026-05-07 07:59 | -27.51781 | -100.92981 | 32203 ft | 520 kts | 238° |
| 2026-05-07 08:00 | -27.55603 | -100.99922 | 32197 ft | 519 kts | 238° |
| 2026-05-07 08:00 | -27.59409 | -101.06847 | 32194 ft | 520 kts | 238° |
| 2026-05-07 08:01 | -27.63202 | -101.13761 | 32212 ft | 519 kts | 238° |
| 2026-05-07 08:01 | -27.67011 | -101.20711 | 32213 ft | 520 kts | 238° |
| 2026-05-07 08:02 | -27.70811 | -101.27658 | 32199 ft | 520 kts | 238° |
| 2026-05-07 08:02 | -27.74595 | -101.34589 | 32198 ft | 519 kts | 239° |
| 2026-05-07 08:03 | -27.78363 | -101.41501 | 32216 ft | 518 kts | 239° |
| 2026-05-07 08:03 | -27.82144 | -101.48443 | 32197 ft | 518 kts | 239° |
| 2026-05-07 08:04 | -27.85920 | -101.55390 | 32198 ft | 518 kts | 239° |
| 2026-05-07 08:04 | -27.89664 | -101.62294 | 32199 ft | 518 kts | 239° |
| 2026-05-07 08:05 | -27.93426 | -101.69241 | 32207 ft | 517 kts | 239° |
| 2026-05-07 08:05 | -27.97183 | -101.76192 | 32191 ft | 517 kts | 239° |
| 2026-05-07 08:06 | -28.00948 | -101.83159 | 32193 ft | 517 kts | 239° |
| 2026-05-07 08:06 | -28.04687 | -101.90090 | 32213 ft | 517 kts | 239° |
| 2026-05-07 08:07 | -28.08418 | -101.97024 | 32199 ft | 517 kts | 240° |
| 2026-05-07 08:07 | -28.12152 | -102.03977 | 32195 ft | 517 kts | 240° |
| 2026-05-07 08:08 | -28.15911 | -102.10986 | 32198 ft | 517 kts | 240° |
| 2026-05-07 08:08 | -28.19608 | -102.17888 | 32207 ft | 517 kts | 240° |
| 2026-05-07 08:09 | -28.23333 | -102.24853 | 32195 ft | 516 kts | 240° |
| 2026-05-07 08:09 | -28.27063 | -102.31839 | 32206 ft | 516 kts | 240° |
| 2026-05-07 08:10 | -28.30770 | -102.38795 | 32194 ft | 516 kts | 240° |
| 2026-05-07 08:10 | -28.34459 | -102.45730 | 32213 ft | 515 kts | 240° |
| 2026-05-07 08:11 | -28.37543 | -102.51536 | 32195 ft | 515 kts | 240° |
| 2026-05-07 08:11 | -28.41841 | -102.59637 | 32182 ft | 514 kts | 240° |
| 2026-05-07 08:12 | -28.44912 | -102.65433 | 32186 ft | 512 kts | 240° |
| 2026-05-07 08:12 | -28.48579 | -102.72374 | 32181 ft | 512 kts | 240° |
| 2026-05-07 08:13 | -28.52257 | -102.79343 | 32185 ft | 512 kts | 240° |
| 2026-05-07 08:13 | -28.55918 | -102.86291 | 32184 ft | 512 kts | 241° |
| 2026-05-07 08:14 | -28.59553 | -102.93199 | 32184 ft | 511 kts | 241° |
| 2026-05-07 08:14 | -28.63203 | -103.00148 | 32183 ft | 511 kts | 241° |
| 2026-05-07 08:15 | -28.66835 | -103.07075 | 32185 ft | 510 kts | 241° |
| 2026-05-07 08:15 | -28.70486 | -103.14052 | 32183 ft | 509 kts | 241° |
| 2026-05-07 08:16 | -28.74109 | -103.20986 | 32182 ft | 509 kts | 241° |
| 2026-05-07 08:16 | -28.77700 | -103.27868 | 32186 ft | 509 kts | 241° |
| 2026-05-07 08:17 | -28.81332 | -103.34841 | 32184 ft | 509 kts | 241° |
| 2026-05-07 08:17 | -28.84943 | -103.41784 | 32183 ft | 509 kts | 241° |
| 2026-05-07 08:18 | -28.88529 | -103.48691 | 32184 ft | 509 kts | 242° |
| 2026-05-07 08:18 | -28.92142 | -103.55669 | 32186 ft | 509 kts | 241° |
| 2026-05-07 08:19 | -28.95741 | -103.62625 | 32185 ft | 508 kts | 242° |
| 2026-05-07 08:19 | -28.99328 | -103.69569 | 32186 ft | 507 kts | 242° |
| 2026-05-07 08:20 | -29.02904 | -103.76503 | 32185 ft | 507 kts | 242° |
| 2026-05-07 08:20 | -29.06483 | -103.83454 | 32182 ft | 507 kts | 242° |
| 2026-05-07 08:21 | -29.10037 | -103.90376 | 32184 ft | 507 kts | 242° |
| 2026-05-07 08:21 | -29.13611 | -103.97343 | 32182 ft | 506 kts | 242° |
| 2026-05-07 08:22 | -29.17157 | -104.04267 | 32191 ft | 505 kts | 242° |
| 2026-05-07 08:22 | -29.20719 | -104.11231 | 32184 ft | 504 kts | 242° |
| 2026-05-07 08:23 | -29.24244 | -104.18136 | 32185 ft | 504 kts | 242° |
| 2026-05-07 08:23 | -29.27770 | -104.25059 | 32182 ft | 504 kts | 243° |
| 2026-05-07 08:24 | -29.31307 | -104.32016 | 32181 ft | 504 kts | 243° |
| 2026-05-07 08:24 | -29.34832 | -104.38958 | 32183 ft | 504 kts | 243° |
| 2026-05-07 08:25 | -29.38335 | -104.45867 | 32188 ft | 504 kts | 243° |
| 2026-05-07 08:25 | -29.41860 | -104.52830 | 32187 ft | 504 kts | 243° |
| 2026-05-07 08:26 | -29.47138 | -104.63285 | 32185 ft | 503 kts | 243° |
| 2026-05-07 08:26 | -29.50639 | -104.70231 | 32184 ft | 503 kts | 243° |
| 2026-05-07 08:27 | -29.54137 | -104.77187 | 32184 ft | 503 kts | 243° |
| 2026-05-07 08:27 | -29.57622 | -104.84127 | 32184 ft | 503 kts | 243° |
| 2026-05-07 08:28 | -29.61098 | -104.91061 | 32187 ft | 503 kts | 243° |
| 2026-05-07 08:28 | -29.64598 | -104.98055 | 32184 ft | 503 kts | 243° |
| 2026-05-07 08:29 | -29.68065 | -105.04998 | 32186 ft | 503 kts | 243° |
| 2026-05-07 08:29 | -29.71556 | -105.11998 | 32181 ft | 502 kts | 243° |
| 2026-05-07 08:30 | -29.75012 | -105.18941 | 32184 ft | 502 kts | 244° |
| 2026-05-07 08:30 | -29.78472 | -105.25903 | 32187 ft | 502 kts | 244° |
| 2026-05-07 08:31 | -29.81933 | -105.32878 | 32185 ft | 501 kts | 244° |
| 2026-05-07 08:31 | -29.85386 | -105.39851 | 32184 ft | 501 kts | 244° |
| 2026-05-07 08:32 | -29.88831 | -105.46823 | 32186 ft | 501 kts | 244° |
| 2026-05-07 08:32 | -29.92284 | -105.53824 | 32184 ft | 501 kts | 244° |
| 2026-05-07 08:33 | -29.95716 | -105.60789 | 32183 ft | 501 kts | 244° |
| 2026-05-07 08:33 | -29.99164 | -105.67801 | 32186 ft | 501 kts | 244° |
| 2026-05-07 08:34 | -30.02588 | -105.74778 | 32184 ft | 500 kts | 245° |
| 2026-05-07 08:34 | -30.06014 | -105.81767 | 32182 ft | 500 kts | 245° |
| 2026-05-07 08:35 | -30.09416 | -105.88722 | 32185 ft | 500 kts | 245° |
| 2026-05-07 08:35 | -30.12839 | -105.95731 | 32183 ft | 500 kts | 245° |
| 2026-05-07 08:36 | -30.16269 | -106.02773 | 32183 ft | 500 kts | 245° |
| 2026-05-07 08:36 | -30.19666 | -106.09754 | 32185 ft | 500 kts | 245° |
| 2026-05-07 08:37 | -30.23076 | -106.16775 | 32184 ft | 500 kts | 245° |
| 2026-05-07 08:37 | -30.26445 | -106.23727 | 32182 ft | 499 kts | 245° |
| 2026-05-07 08:38 | -30.29845 | -106.30753 | 32186 ft | 499 kts | 245° |
| 2026-05-07 08:38 | -30.33218 | -106.37736 | 32185 ft | 498 kts | 245° |
| 2026-05-07 08:39 | -30.36603 | -106.44755 | 32186 ft | 498 kts | 244° |
| 2026-05-07 08:39 | -30.39965 | -106.51740 | 32181 ft | 497 kts | 245° |
| 2026-05-07 08:40 | -30.43324 | -106.58730 | 32185 ft | 497 kts | 244° |
| 2026-05-07 08:40 | -30.46685 | -106.65740 | 32183 ft | 496 kts | 244° |
| 2026-05-07 08:41 | -30.50006 | -106.72675 | 32186 ft | 495 kts | 244° |
| 2026-05-07 08:41 | -30.53339 | -106.79650 | 32185 ft | 494 kts | 244° |
| 2026-05-07 08:42 | -30.56663 | -106.86618 | 32182 ft | 493 kts | 244° |
| 2026-05-07 08:42 | -30.59969 | -106.93563 | 32186 ft | 492 kts | 244° |
| 2026-05-07 08:43 | -30.63273 | -107.00516 | 32185 ft | 492 kts | 244° |
| 2026-05-07 08:43 | -30.66579 | -107.07481 | 32185 ft | 491 kts | 244° |
| 2026-05-07 08:44 | -30.69863 | -107.14415 | 32185 ft | 490 kts | 244° |
| 2026-05-07 08:44 | -30.73141 | -107.21352 | 32183 ft | 490 kts | 244° |
| 2026-05-07 08:45 | -30.76416 | -107.28293 | 32186 ft | 489 kts | 244° |
| 2026-05-07 08:45 | -30.79684 | -107.35230 | 32183 ft | 489 kts | 244° |
| 2026-05-07 08:46 | -30.82950 | -107.42177 | 32184 ft | 488 kts | 244° |
| 2026-05-07 08:46 | -30.86194 | -107.49087 | 32186 ft | 488 kts | 244° |
| 2026-05-07 08:47 | -30.89442 | -107.56018 | 32184 ft | 488 kts | 244° |
| 2026-05-07 08:47 | -30.92681 | -107.62947 | 32186 ft | 487 kts | 244° |
| 2026-05-07 08:48 | -30.95928 | -107.69904 | 32186 ft | 487 kts | 244° |
| 2026-05-07 08:48 | -30.99161 | -107.76844 | 32186 ft | 487 kts | 244° |
| 2026-05-07 08:49 | -31.02387 | -107.83782 | 32183 ft | 487 kts | 244° |
| 2026-05-07 08:49 | -31.05590 | -107.90681 | 32185 ft | 486 kts | 244° |
| 2026-05-07 08:50 | -31.08806 | -107.97621 | 32186 ft | 486 kts | 244° |
| 2026-05-07 08:50 | -31.12027 | -108.04584 | 32183 ft | 485 kts | 244° |
| 2026-05-07 08:51 | -31.15216 | -108.11491 | 32183 ft | 483 kts | 244° |
| 2026-05-07 08:51 | -31.18387 | -108.18374 | 32187 ft | 483 kts | 244° |
| 2026-05-07 08:52 | -31.21555 | -108.25259 | 32185 ft | 483 kts | 244° |
| 2026-05-07 08:52 | -31.24749 | -108.32218 | 32187 ft | 483 kts | 244° |
| 2026-05-07 08:53 | -31.27925 | -108.39147 | 32185 ft | 483 kts | 244° |
| 2026-05-07 08:53 | -31.31096 | -108.46074 | 32184 ft | 483 kts | 244° |
| 2026-05-07 08:54 | -31.34231 | -108.52948 | 32181 ft | 483 kts | 244° |
| 2026-05-07 08:54 | -31.37406 | -108.59913 | 32185 ft | 483 kts | 244° |
| 2026-05-07 08:55 | -31.40558 | -108.66841 | 32180 ft | 483 kts | 244° |
| 2026-05-07 08:55 | -31.43693 | -108.73744 | 32185 ft | 482 kts | 244° |
| 2026-05-07 08:56 | -31.46849 | -108.80706 | 32184 ft | 482 kts | 244° |
| 2026-05-07 08:56 | -31.49988 | -108.87651 | 32184 ft | 482 kts | 244° |
| 2026-05-07 08:57 | -31.53109 | -108.94559 | 32186 ft | 481 kts | 244° |
| 2026-05-07 08:57 | -31.56225 | -109.01476 | 32189 ft | 481 kts | 244° |
| 2026-05-07 08:58 | -31.59349 | -109.08416 | 32182 ft | 481 kts | 244° |
| 2026-05-07 08:58 | -31.62459 | -109.15340 | 32180 ft | 481 kts | 244° |
| 2026-05-07 08:59 | -31.65575 | -109.22295 | 32186 ft | 480 kts | 244° |
| 2026-05-07 08:59 | -31.68678 | -109.29231 | 32185 ft | 479 kts | 244° |
| 2026-05-07 09:00 | -31.71766 | -109.36145 | 32186 ft | 479 kts | 244° |
| 2026-05-07 09:00 | -31.74866 | -109.43100 | 32183 ft | 479 kts | 244° |
| 2026-05-07 09:01 | -31.77427 | -109.48857 | 32185 ft | 478 kts | 245° |
| 2026-05-07 09:01 | -31.80506 | -109.55791 | 32186 ft | 478 kts | 245° |
| 2026-05-07 09:02 | -31.83573 | -109.62709 | 32188 ft | 478 kts | 245° |
| 2026-05-07 09:02 | -31.86662 | -109.69693 | 32184 ft | 478 kts | 245° |
| 2026-05-07 09:03 | -31.89725 | -109.76629 | 32186 ft | 478 kts | 245° |
| 2026-05-07 09:03 | -31.92787 | -109.83578 | 32185 ft | 478 kts | 245° |
| 2026-05-07 09:04 | -31.95820 | -109.90472 | 32183 ft | 477 kts | 245° |
| 2026-05-07 09:04 | -31.98860 | -109.97395 | 32186 ft | 477 kts | 245° |
| 2026-05-07 09:05 | -32.01940 | -110.04317 | 32184 ft | 478 kts | 245° |
| 2026-05-07 09:05 | -32.05128 | -110.11223 | 32183 ft | 478 kts | 244° |
| 2026-05-07 09:06 | -32.08289 | -110.18059 | 32185 ft | 478 kts | 244° |
| 2026-05-07 09:06 | -32.11456 | -110.24950 | 32187 ft | 477 kts | 245° |
| 2026-05-07 09:07 | -32.14616 | -110.31867 | 32183 ft | 477 kts | 245° |
| 2026-05-07 09:07 | -32.17765 | -110.38773 | 32186 ft | 477 kts | 245° |
| 2026-05-07 09:08 | -32.20883 | -110.45627 | 32188 ft | 477 kts | 245° |
| 2026-05-07 09:08 | -32.24034 | -110.52560 | 32185 ft | 477 kts | 245° |
| 2026-05-07 09:09 | -32.27157 | -110.59448 | 32186 ft | 477 kts | 245° |
| 2026-05-07 09:09 | -32.30293 | -110.66378 | 32185 ft | 476 kts | 245° |
| 2026-05-07 09:10 | -32.33416 | -110.73288 | 32187 ft | 476 kts | 245° |
| 2026-05-07 09:10 | -32.36530 | -110.80198 | 32186 ft | 476 kts | 246° |
| 2026-05-07 09:11 | -32.39640 | -110.87108 | 32184 ft | 476 kts | 246° |
| 2026-05-07 09:11 | -32.42736 | -110.94001 | 32186 ft | 476 kts | 246° |
| 2026-05-07 09:12 | -32.45852 | -111.00949 | 32183 ft | 476 kts | 246° |
| 2026-05-07 09:12 | -32.48951 | -111.07875 | 32186 ft | 475 kts | 246° |
| 2026-05-07 09:13 | -32.52032 | -111.14774 | 32184 ft | 475 kts | 246° |
| 2026-05-07 09:13 | -32.55124 | -111.21714 | 32184 ft | 475 kts | 246° |
| 2026-05-07 09:14 | -32.58192 | -111.28613 | 32182 ft | 475 kts | 246° |
| 2026-05-07 09:14 | -32.61289 | -111.35586 | 32184 ft | 475 kts | 246° |
| 2026-05-07 09:15 | -32.64335 | -111.42463 | 32185 ft | 475 kts | 246° |
| 2026-05-07 09:15 | -32.67404 | -111.49399 | 32189 ft | 474 kts | 246° |
| 2026-05-07 09:16 | -32.70470 | -111.56342 | 32185 ft | 474 kts | 246° |
| 2026-05-07 09:16 | -32.73527 | -111.63277 | 32184 ft | 474 kts | 247° |
| 2026-05-07 09:17 | -32.76579 | -111.70223 | 32186 ft | 475 kts | 247° |
| 2026-05-07 09:17 | -32.79650 | -111.77220 | 32468 ft | 477 kts | 247° |
| 2026-05-07 09:18 | -32.81180 | -111.80706 | 32937 ft | 473 kts | 247° |
| 2026-05-07 09:18 | -32.82702 | -111.84173 | 33429 ft | 468 kts | 247° |
| 2026-05-07 09:18 | -32.84181 | -111.87553 | 33823 ft | 465 kts | 247° |
| 2026-05-07 09:18 | -32.85668 | -111.90954 | 34177 ft | 463 kts | 247° |
| 2026-05-07 09:19 | -32.88633 | -111.97753 | 34187 ft | 462 kts | 247° |
| 2026-05-07 09:19 | -32.91588 | -112.04537 | 34182 ft | 461 kts | 248° |
| 2026-05-07 09:20 | -32.94522 | -112.11289 | 34185 ft | 459 kts | 248° |
| 2026-05-07 09:20 | -32.97469 | -112.18086 | 34187 ft | 460 kts | 248° |
| 2026-05-07 09:21 | -33.00394 | -112.24844 | 34184 ft | 460 kts | 248° |
| 2026-05-07 09:21 | -33.03311 | -112.31585 | 34183 ft | 459 kts | 248° |
| 2026-05-07 09:22 | -33.06252 | -112.38401 | 34188 ft | 459 kts | 249° |
| 2026-05-07 09:22 | -33.09149 | -112.45130 | 34183 ft | 459 kts | 249° |
| 2026-05-07 09:23 | -33.12064 | -112.51916 | 34184 ft | 459 kts | 249° |
| 2026-05-07 09:23 | -33.14972 | -112.58697 | 34185 ft | 459 kts | 249° |
| 2026-05-07 09:24 | -33.17875 | -112.65480 | 34188 ft | 459 kts | 249° |
| 2026-05-07 09:24 | -33.20777 | -112.72269 | 34183 ft | 459 kts | 249° |
| 2026-05-07 09:25 | -33.23658 | -112.79026 | 34186 ft | 458 kts | 249° |
| 2026-05-07 09:25 | -33.26551 | -112.85817 | 34185 ft | 457 kts | 249° |
| 2026-05-07 09:26 | -33.29427 | -112.92592 | 34185 ft | 457 kts | 249° |
| 2026-05-07 09:26 | -33.32289 | -112.99344 | 34184 ft | 457 kts | 249° |
| 2026-05-07 09:27 | -33.35165 | -113.06136 | 34186 ft | 456 kts | 250° |
| 2026-05-07 09:28 | -33.39444 | -113.16271 | 34176 ft | 456 kts | 250° |
| 2026-05-07 09:28 | -33.42312 | -113.23084 | 34176 ft | 456 kts | 250° |
| 2026-05-07 09:29 | -33.45151 | -113.29841 | 34175 ft | 456 kts | 250° |
| 2026-05-07 09:29 | -33.47999 | -113.36627 | 34175 ft | 455 kts | 250° |
| 2026-05-07 09:30 | -33.50842 | -113.43416 | 34176 ft | 454 kts | 251° |
| 2026-05-07 09:30 | -33.53669 | -113.50181 | 34175 ft | 454 kts | 251° |
| 2026-05-07 09:31 | -33.56484 | -113.56931 | 34175 ft | 453 kts | 251° |
| 2026-05-07 09:31 | -33.59285 | -113.63664 | 34176 ft | 453 kts | 251° |
| 2026-05-07 09:32 | -33.62105 | -113.70454 | 34174 ft | 452 kts | 251° |
| 2026-05-07 09:32 | -33.64890 | -113.77172 | 34177 ft | 452 kts | 251° |
| 2026-05-07 09:33 | -33.67698 | -113.83956 | 34175 ft | 452 kts | 251° |
| 2026-05-07 09:33 | -33.70491 | -113.90722 | 34175 ft | 452 kts | 251° |
| 2026-05-07 09:34 | -33.73277 | -113.97481 | 34176 ft | 451 kts | 252° |
| 2026-05-07 09:34 | -33.76057 | -114.04239 | 34176 ft | 451 kts | 252° |
| 2026-05-07 09:35 | -33.78823 | -114.10977 | 34175 ft | 450 kts | 252° |
| 2026-05-07 09:35 | -33.81595 | -114.17743 | 34177 ft | 451 kts | 252° |
| 2026-05-07 09:36 | -33.84352 | -114.24483 | 34175 ft | 450 kts | 252° |
| 2026-05-07 09:36 | -33.87111 | -114.31246 | 34176 ft | 450 kts | 252° |
| 2026-05-07 09:37 | -33.89872 | -114.38026 | 34176 ft | 450 kts | 252° |
| 2026-05-07 09:37 | -33.92626 | -114.44801 | 34175 ft | 450 kts | 252° |
| 2026-05-07 09:38 | -33.95368 | -114.51559 | 34177 ft | 450 kts | 252° |
| 2026-05-07 09:38 | -33.98112 | -114.58334 | 34174 ft | 450 kts | 252° |
| 2026-05-07 09:39 | -34.00838 | -114.65082 | 34179 ft | 450 kts | 253° |
| 2026-05-07 09:39 | -34.03577 | -114.71872 | 34174 ft | 450 kts | 253° |
| 2026-05-07 09:40 | -34.06314 | -114.78674 | 34180 ft | 450 kts | 253° |
| 2026-05-07 09:40 | -34.09045 | -114.85473 | 34174 ft | 449 kts | 253° |
| 2026-05-07 09:41 | -34.11753 | -114.92231 | 34173 ft | 449 kts | 253° |
| 2026-05-07 09:41 | -34.14467 | -114.99021 | 34178 ft | 449 kts | 254° |
| 2026-05-07 09:42 | -34.17185 | -115.05831 | 34175 ft | 449 kts | 254° |
| 2026-05-07 09:42 | -34.19895 | -115.12630 | 34175 ft | 449 kts | 254° |
| 2026-05-07 09:43 | -34.22600 | -115.19437 | 34176 ft | 449 kts | 254° |
| 2026-05-07 09:43 | -34.25290 | -115.26209 | 34175 ft | 448 kts | 255° |
| 2026-05-07 09:44 | -34.27972 | -115.32981 | 34174 ft | 447 kts | 255° |
| 2026-05-07 09:44 | -34.30653 | -115.39770 | 34177 ft | 447 kts | 255° |
| 2026-05-07 09:45 | -34.33340 | -115.46586 | 34174 ft | 447 kts | 255° |
| 2026-05-07 09:45 | -34.36014 | -115.53378 | 34177 ft | 446 kts | 255° |
| 2026-05-07 09:46 | -34.38665 | -115.60133 | 34176 ft | 447 kts | 255° |
| 2026-05-07 09:46 | -34.41340 | -115.66959 | 34176 ft | 448 kts | 255° |
| 2026-05-07 09:47 | -34.44001 | -115.73759 | 34176 ft | 447 kts | 255° |
| 2026-05-07 09:47 | -34.46649 | -115.80539 | 34175 ft | 447 kts | 255° |
| 2026-05-07 09:48 | -34.49313 | -115.87377 | 34171 ft | 447 kts | 255° |
| 2026-05-07 09:48 | -34.51527 | -115.93072 | 34165 ft | 447 kts | 255° |
| 2026-05-07 09:49 | -34.54598 | -116.00990 | 34167 ft | 447 kts | 255° |
| 2026-05-07 09:49 | -34.56807 | -116.06695 | 34167 ft | 447 kts | 256° |
| 2026-05-07 09:50 | -34.59456 | -116.13547 | 34166 ft | 447 kts | 256° |
| 2026-05-07 09:50 | -34.62089 | -116.20373 | 34167 ft | 448 kts | 256° |
| 2026-05-07 09:51 | -34.64734 | -116.27248 | 34166 ft | 448 kts | 256° |
| 2026-05-07 09:51 | -34.67357 | -116.34078 | 34164 ft | 448 kts | 256° |
| 2026-05-07 09:52 | -34.69988 | -116.40939 | 34168 ft | 449 kts | 256° |
| 2026-05-07 09:52 | -34.72614 | -116.47807 | 34165 ft | 449 kts | 256° |
| 2026-05-07 09:53 | -34.75265 | -116.54751 | 34167 ft | 450 kts | 256° |
| 2026-05-07 09:53 | -34.77880 | -116.61623 | 34166 ft | 450 kts | 256° |
| 2026-05-07 09:54 | -34.80502 | -116.68513 | 34164 ft | 450 kts | 257° |
| 2026-05-07 09:54 | -34.83119 | -116.75419 | 34169 ft | 451 kts | 257° |
| 2026-05-07 09:55 | -34.85741 | -116.82347 | 34165 ft | 451 kts | 257° |
| 2026-05-07 09:55 | -34.88364 | -116.89292 | 34166 ft | 450 kts | 257° |
| 2026-05-07 09:56 | -34.90977 | -116.96231 | 34167 ft | 451 kts | 257° |
| 2026-05-07 09:56 | -34.93590 | -117.03182 | 34165 ft | 451 kts | 257° |
| 2026-05-07 09:57 | -34.96209 | -117.10158 | 34168 ft | 451 kts | 257° |
| 2026-05-07 09:57 | -34.98795 | -117.17062 | 34166 ft | 450 kts | 257° |
| 2026-05-07 09:58 | -35.01395 | -117.24026 | 34168 ft | 451 kts | 257° |
| 2026-05-07 09:58 | -35.03998 | -117.31008 | 34166 ft | 452 kts | 258° |
| 2026-05-07 09:59 | -35.06589 | -117.37971 | 34165 ft | 451 kts | 258° |
| 2026-05-07 09:59 | -35.09179 | -117.44950 | 34167 ft | 450 kts | 258° |
| 2026-05-07 10:00 | -35.11747 | -117.51886 | 34164 ft | 451 kts | 258° |
| 2026-05-07 10:00 | -35.14339 | -117.58899 | 34168 ft | 451 kts | 258° |
| 2026-05-07 10:01 | -35.16906 | -117.65858 | 34165 ft | 451 kts | 258° |
| 2026-05-07 10:01 | -35.19478 | -117.72853 | 34167 ft | 450 kts | 258° |
| 2026-05-07 10:02 | -35.22043 | -117.79842 | 34164 ft | 450 kts | 259° |
| 2026-05-07 10:02 | -35.24594 | -117.86809 | 34170 ft | 451 kts | 259° |
| 2026-05-07 10:03 | -35.27151 | -117.93799 | 34163 ft | 451 kts | 259° |
| 2026-05-07 10:03 | -35.29706 | -118.00805 | 34166 ft | 450 kts | 259° |
| 2026-05-07 10:04 | -35.32268 | -118.07840 | 34165 ft | 449 kts | 260° |
| 2026-05-07 10:04 | -35.34794 | -118.14801 | 34167 ft | 449 kts | 260° |
| 2026-05-07 10:05 | -35.37329 | -118.21800 | 34167 ft | 449 kts | 260° |
| 2026-05-07 10:05 | -35.39853 | -118.28785 | 34167 ft | 449 kts | 260° |
| 2026-05-07 10:06 | -35.42383 | -118.35795 | 34170 ft | 448 kts | 260° |
| 2026-05-07 10:06 | -35.44890 | -118.42760 | 34178 ft | 448 kts | 260° |
| 2026-05-07 10:07 | -35.47392 | -118.49728 | 34174 ft | 448 kts | 260° |
| 2026-05-07 10:07 | -35.49911 | -118.56758 | 34177 ft | 448 kts | 261° |
| 2026-05-07 10:08 | -35.52399 | -118.63719 | 34174 ft | 447 kts | 261° |
| 2026-05-07 10:08 | -35.54908 | -118.70757 | 34176 ft | 447 kts | 261° |
| 2026-05-07 10:09 | -35.57378 | -118.77694 | 34178 ft | 446 kts | 261° |
| 2026-05-07 10:09 | -35.59860 | -118.84683 | 34175 ft | 446 kts | 261° |
| 2026-05-07 10:10 | -35.62337 | -118.91678 | 34174 ft | 445 kts | 261° |
| 2026-05-07 10:10 | -35.64790 | -118.98620 | 34177 ft | 445 kts | 261° |
| 2026-05-07 10:11 | -35.67259 | -119.05624 | 34167 ft | 444 kts | 262° |
| 2026-05-07 10:11 | -35.69700 | -119.12551 | 34157 ft | 443 kts | 262° |
| 2026-05-07 10:12 | -35.72145 | -119.19516 | 34153 ft | 443 kts | 262° |
| 2026-05-07 10:12 | -35.74585 | -119.26489 | 34160 ft | 444 kts | 262° |
| 2026-05-07 10:13 | -35.77027 | -119.33473 | 34151 ft | 443 kts | 263° |
| 2026-05-07 10:13 | -35.79465 | -119.40453 | 34157 ft | 441 kts | 263° |
| 2026-05-07 10:14 | -35.81860 | -119.47337 | 34156 ft | 440 kts | 263° |
| 2026-05-07 10:14 | -35.84264 | -119.54265 | 34155 ft | 440 kts | 263° |
| 2026-05-07 10:15 | -35.86655 | -119.61172 | 34157 ft | 439 kts | 263° |
| 2026-05-07 10:15 | -35.89044 | -119.68083 | 34157 ft | 438 kts | 264° |
| 2026-05-07 10:16 | -35.91429 | -119.74999 | 34157 ft | 438 kts | 264° |
| 2026-05-07 10:16 | -35.93818 | -119.81946 | 34156 ft | 437 kts | 264° |
| 2026-05-07 10:17 | -35.96180 | -119.88829 | 34158 ft | 436 kts | 264° |
| 2026-05-07 10:17 | -35.98541 | -119.95723 | 34157 ft | 436 kts | 264° |
| 2026-05-07 10:18 | -36.00900 | -120.02596 | 34154 ft | 437 kts | 264° |
| 2026-05-07 10:18 | -36.03350 | -120.09508 | 34154 ft | 438 kts | 263° |
| 2026-05-07 10:19 | -36.05810 | -120.16413 | 34158 ft | 438 kts | 263° |
| 2026-05-07 10:19 | -36.08249 | -120.23294 | 34154 ft | 438 kts | 263° |
| 2026-05-07 10:20 | -36.10691 | -120.30222 | 34146 ft | 438 kts | 263° |
| 2026-05-07 10:20 | -36.13109 | -120.37102 | 34149 ft | 438 kts | 263° |
| 2026-05-07 10:21 | -36.15539 | -120.44034 | 34148 ft | 439 kts | 263° |
| 2026-05-07 10:21 | -36.17958 | -120.50944 | 34151 ft | 439 kts | 263° |
| 2026-05-07 10:22 | -36.20378 | -120.57870 | 34146 ft | 438 kts | 263° |
| 2026-05-07 10:22 | -36.22796 | -120.64813 | 34148 ft | 439 kts | 263° |
| 2026-05-07 10:23 | -36.25210 | -120.71767 | 34148 ft | 440 kts | 262° |
| 2026-05-07 10:23 | -36.27634 | -120.78760 | 34148 ft | 441 kts | 262° |
| 2026-05-07 10:24 | -36.30045 | -120.85729 | 34151 ft | 441 kts | 262° |
| 2026-05-07 10:24 | -36.32462 | -120.92722 | 34145 ft | 441 kts | 262° |
| 2026-05-07 10:25 | -36.34866 | -120.99706 | 34148 ft | 441 kts | 262° |
| 2026-05-07 10:25 | -36.37267 | -121.06699 | 34146 ft | 442 kts | 262° |
| 2026-05-07 10:26 | -36.39684 | -121.13750 | 34146 ft | 443 kts | 261° |
| 2026-05-07 10:26 | -36.42098 | -121.20806 | 34147 ft | 442 kts | 261° |
| 2026-05-07 10:27 | -36.44486 | -121.27804 | 34149 ft | 442 kts | 261° |
| 2026-05-07 10:27 | -36.46880 | -121.34845 | 34149 ft | 443 kts | 261° |
| 2026-05-07 10:28 | -36.49279 | -121.41911 | 34146 ft | 444 kts | 261° |
| 2026-05-07 10:28 | -36.51681 | -121.48995 | 34148 ft | 444 kts | 261° |
| 2026-05-07 10:29 | -36.54065 | -121.56044 | 34146 ft | 443 kts | 261° |
| 2026-05-07 10:29 | -36.56448 | -121.63110 | 34150 ft | 443 kts | 261° |
| 2026-05-07 10:30 | -36.60025 | -121.73754 | 34149 ft | 444 kts | 261° |
| 2026-05-07 10:30 | -36.62400 | -121.80846 | 34148 ft | 444 kts | 261° |
| 2026-05-07 10:31 | -36.64769 | -121.87931 | 34146 ft | 444 kts | 260° |
| 2026-05-07 10:31 | -36.67125 | -121.94996 | 34150 ft | 444 kts | 261° |
| 2026-05-07 10:32 | -36.69497 | -122.02124 | 34148 ft | 444 kts | 260° |
| 2026-05-07 10:32 | -36.71854 | -122.09225 | 34149 ft | 446 kts | 259° |
| 2026-05-07 10:33 | -36.74220 | -122.16371 | 34147 ft | 447 kts | 259° |
| 2026-05-07 10:33 | -36.76592 | -122.23547 | 34145 ft | 447 kts | 259° |
| 2026-05-07 10:34 | -36.78953 | -122.30708 | 34145 ft | 447 kts | 259° |
| 2026-05-07 10:34 | -36.81303 | -122.37856 | 34149 ft | 447 kts | 259° |
| 2026-05-07 10:35 | -36.83654 | -122.45027 | 34148 ft | 448 kts | 259° |
| 2026-05-07 10:35 | -36.86017 | -122.52241 | 34149 ft | 448 kts | 259° |
| 2026-05-07 10:36 | -36.88374 | -122.59475 | 34148 ft | 448 kts | 259° |
| 2026-05-07 10:36 | -36.90701 | -122.66625 | 34145 ft | 448 kts | 259° |
| 2026-05-07 10:37 | -36.93060 | -122.73888 | 34150 ft | 449 kts | 259° |
| 2026-05-07 10:37 | -36.95410 | -122.81133 | 34147 ft | 449 kts | 259° |
| 2026-05-07 10:38 | -36.97745 | -122.88361 | 34150 ft | 449 kts | 259° |
| 2026-05-07 10:38 | -37.00069 | -122.95576 | 34144 ft | 448 kts | 259° |
| 2026-05-07 10:39 | -37.02002 | -123.01586 | 34150 ft | 449 kts | 259° |
| 2026-05-07 10:39 | -37.04723 | -123.10066 | 34148 ft | 450 kts | 259° |
| 2026-05-07 10:40 | -37.06661 | -123.16122 | 34147 ft | 450 kts | 258° |
| 2026-05-07 10:40 | -37.08989 | -123.23412 | 34149 ft | 451 kts | 258° |
| 2026-05-07 10:41 | -37.11315 | -123.30715 | 34148 ft | 451 kts | 258° |
| 2026-05-07 10:41 | -37.13625 | -123.37988 | 34149 ft | 451 kts | 258° |
| 2026-05-07 10:42 | -37.15949 | -123.45328 | 34148 ft | 452 kts | 258° |
| 2026-05-07 10:42 | -37.18263 | -123.52660 | 34150 ft | 452 kts | 258° |
| 2026-05-07 10:43 | -37.20568 | -123.59966 | 34147 ft | 453 kts | 258° |
| 2026-05-07 10:43 | -37.22877 | -123.67309 | 34142 ft | 453 kts | 258° |
| 2026-05-07 10:44 | -37.25184 | -123.74661 | 34148 ft | 453 kts | 258° |
| 2026-05-07 10:44 | -37.27485 | -123.82016 | 34140 ft | 454 kts | 258° |
| 2026-05-07 10:45 | -37.29800 | -123.89434 | 34137 ft | 454 kts | 258° |
| 2026-05-07 10:45 | -37.32088 | -123.96792 | 34139 ft | 454 kts | 258° |
| 2026-05-07 10:46 | -37.34369 | -124.04144 | 34139 ft | 454 kts | 257° |
| 2026-05-07 10:46 | -37.36668 | -124.11574 | 34140 ft | 456 kts | 257° |
| 2026-05-07 10:47 | -37.38960 | -124.18996 | 34138 ft | 456 kts | 257° |
| 2026-05-07 10:47 | -37.41256 | -124.26449 | 34137 ft | 455 kts | 257° |
| 2026-05-07 10:48 | -37.43530 | -124.33856 | 34140 ft | 456 kts | 257° |
| 2026-05-07 10:48 | -37.45820 | -124.41336 | 34139 ft | 456 kts | 257° |
| 2026-05-07 10:49 | -37.48096 | -124.48785 | 34141 ft | 456 kts | 257° |
| 2026-05-07 10:49 | -37.50356 | -124.56203 | 34137 ft | 456 kts | 257° |
| 2026-05-07 10:50 | -37.52620 | -124.63654 | 34140 ft | 456 kts | 257° |
| 2026-05-07 10:50 | -37.54877 | -124.71099 | 34137 ft | 456 kts | 257° |
| 2026-05-07 10:51 | -37.57143 | -124.78597 | 34141 ft | 456 kts | 256° |
| 2026-05-07 10:51 | -37.59395 | -124.86068 | 34138 ft | 456 kts | 256° |
| 2026-05-07 10:52 | -37.61635 | -124.93524 | 34140 ft | 456 kts | 256° |
| 2026-05-07 10:52 | -37.63877 | -125.01003 | 34139 ft | 456 kts | 256° |
| 2026-05-07 10:53 | -37.66109 | -125.08474 | 34139 ft | 456 kts | 256° |
| 2026-05-07 10:53 | -37.68357 | -125.16011 | 34139 ft | 456 kts | 255° |
| 2026-05-07 10:54 | -37.70581 | -125.23489 | 34138 ft | 456 kts | 255° |
| 2026-05-07 10:54 | -37.72810 | -125.31007 | 34137 ft | 456 kts | 255° |
| 2026-05-07 10:55 | -37.75035 | -125.38532 | 34138 ft | 457 kts | 255° |
| 2026-05-07 10:55 | -37.77246 | -125.46028 | 34139 ft | 457 kts | 255° |
| 2026-05-07 10:56 | -37.79465 | -125.53575 | 34136 ft | 457 kts | 254° |
| 2026-05-07 10:56 | -37.81661 | -125.61062 | 34138 ft | 457 kts | 254° |
| 2026-05-07 10:57 | -37.83870 | -125.68618 | 34139 ft | 457 kts | 254° |
| 2026-05-07 10:57 | -37.86072 | -125.76167 | 34138 ft | 457 kts | 254° |
| 2026-05-07 10:58 | -37.88268 | -125.83713 | 34138 ft | 457 kts | 254° |
| 2026-05-07 10:58 | -37.90465 | -125.91289 | 34139 ft | 457 kts | 254° |
| 2026-05-07 10:59 | -37.92652 | -125.98855 | 34139 ft | 458 kts | 254° |
| 2026-05-07 10:59 | -37.94842 | -126.06443 | 34139 ft | 458 kts | 254° |
| 2026-05-07 11:00 | -37.97009 | -126.13975 | 34140 ft | 458 kts | 254° |
| 2026-05-07 11:00 | -37.99180 | -126.21549 | 34137 ft | 457 kts | 254° |
| 2026-05-07 11:01 | -38.01357 | -126.29160 | 34137 ft | 457 kts | 254° |
| 2026-05-07 11:01 | -38.03513 | -126.36722 | 34139 ft | 457 kts | 253° |
| 2026-05-07 11:02 | -38.05670 | -126.44309 | 34137 ft | 457 kts | 253° |
| 2026-05-07 11:02 | -38.07822 | -126.51902 | 34140 ft | 457 kts | 253° |
| 2026-05-07 11:03 | -38.09976 | -126.59522 | 34138 ft | 457 kts | 253° |
| 2026-05-07 11:03 | -38.12120 | -126.67124 | 34140 ft | 457 kts | 253° |
| 2026-05-07 11:04 | -38.14239 | -126.74660 | 34138 ft | 457 kts | 253° |
| 2026-05-07 11:04 | -38.16372 | -126.82272 | 34138 ft | 456 kts | 252° |
| 2026-05-07 11:05 | -38.18498 | -126.89876 | 34138 ft | 456 kts | 252° |
| 2026-05-07 11:05 | -38.20607 | -126.97446 | 34138 ft | 456 kts | 252° |
| 2026-05-07 11:06 | -38.22731 | -127.05083 | 34139 ft | 456 kts | 252° |
| 2026-05-07 11:06 | -38.24831 | -127.12668 | 34139 ft | 455 kts | 251° |
| 2026-05-07 11:07 | -38.26924 | -127.20242 | 34138 ft | 455 kts | 251° |
| 2026-05-07 11:07 | -38.29017 | -127.27841 | 34138 ft | 455 kts | 251° |
| 2026-05-07 11:08 | -38.31116 | -127.35485 | 34139 ft | 455 kts | 251° |
| 2026-05-07 11:08 | -38.33193 | -127.43065 | 34139 ft | 455 kts | 251° |
| 2026-05-07 11:09 | -38.35267 | -127.50665 | 34139 ft | 455 kts | 251° |
| 2026-05-07 11:09 | -38.37334 | -127.58257 | 34139 ft | 455 kts | 251° |
| 2026-05-07 11:10 | -38.39412 | -127.65907 | 34139 ft | 454 kts | 251° |
| 2026-05-07 11:10 | -38.41461 | -127.73476 | 34138 ft | 455 kts | 251° |
| 2026-05-07 11:11 | -38.43519 | -127.81106 | 34138 ft | 455 kts | 251° |
| 2026-05-07 11:11 | -38.45574 | -127.88752 | 34139 ft | 455 kts | 250° |
| 2026-05-07 11:12 | -38.47619 | -127.96366 | 34138 ft | 455 kts | 251° |
| 2026-05-07 11:12 | -38.49658 | -128.03986 | 34143 ft | 454 kts | 250° |
| 2026-05-07 11:13 | -38.51692 | -128.11618 | 34136 ft | 452 kts | 250° |
| 2026-05-07 11:13 | -38.53708 | -128.19196 | 34143 ft | 452 kts | 250° |
| 2026-05-07 11:14 | -38.55718 | -128.26778 | 34139 ft | 452 kts | 250° |
| 2026-05-07 11:14 | -38.57725 | -128.34389 | 34136 ft | 451 kts | 250° |
| 2026-05-07 11:15 | -38.59714 | -128.41942 | 34138 ft | 450 kts | 250° |
| 2026-05-07 11:15 | -38.61714 | -128.49550 | 34138 ft | 449 kts | 249° |
| 2026-05-07 11:16 | -38.63689 | -128.57080 | 34140 ft | 448 kts | 249° |
| 2026-05-07 11:16 | -38.65669 | -128.64673 | 34138 ft | 447 kts | 249° |
| 2026-05-07 11:17 | -38.67635 | -128.72223 | 34139 ft | 447 kts | 249° |
| 2026-05-07 11:17 | -38.69589 | -128.79753 | 34139 ft | 446 kts | 249° |
| 2026-05-07 11:18 | -38.71534 | -128.87266 | 34138 ft | 445 kts | 249° |
| 2026-05-07 11:18 | -38.73474 | -128.94786 | 34137 ft | 444 kts | 249° |
| 2026-05-07 11:19 | -38.75398 | -129.02271 | 34141 ft | 444 kts | 248° |
| 2026-05-07 11:19 | -38.77327 | -129.09795 | 34138 ft | 443 kts | 248° |
| 2026-05-07 11:20 | -38.79232 | -129.17248 | 34138 ft | 441 kts | 248° |
| 2026-05-07 11:20 | -38.81142 | -129.24741 | 34140 ft | 441 kts | 248° |
| 2026-05-07 11:21 | -38.83046 | -129.32234 | 34134 ft | 440 kts | 248° |
| 2026-05-07 11:21 | -38.84936 | -129.39693 | 34128 ft | 440 kts | 248° |
| 2026-05-07 11:22 | -38.86806 | -129.47099 | 34130 ft | 439 kts | 248° |
| 2026-05-07 11:22 | -38.88689 | -129.54582 | 34130 ft | 439 kts | 248° |
| 2026-05-07 11:23 | -38.90557 | -129.62021 | 34130 ft | 438 kts | 248° |
| 2026-05-07 11:23 | -38.92422 | -129.69471 | 34127 ft | 438 kts | 248° |
| 2026-05-07 11:24 | -38.94275 | -129.76900 | 34130 ft | 437 kts | 248° |
| 2026-05-07 11:24 | -38.96126 | -129.84342 | 34127 ft | 437 kts | 247° |
| 2026-05-07 11:25 | -38.97963 | -129.91760 | 34129 ft | 437 kts | 247° |
| 2026-05-07 11:25 | -38.99808 | -129.99209 | 34099 ft | 437 kts | 247° |
| 2026-05-07 11:26 | -39.01646 | -130.06626 | 34100 ft | 432 kts | 246° |
| 2026-05-07 11:26 | -39.03474 | -130.13967 | 34087 ft | 428 kts | 246° |
| 2026-05-07 11:27 | -39.04984 | -130.20038 | 34098 ft | 429 kts | 246° |
| 2026-05-07 11:27 | -39.07098 | -130.28584 | 34091 ft | 430 kts | 246° |
| 2026-05-07 11:28 | -39.08599 | -130.34669 | 34094 ft | 430 kts | 246° |
| 2026-05-07 11:28 | -39.10412 | -130.42041 | 34091 ft | 430 kts | 246° |
| 2026-05-07 11:29 | -39.12213 | -130.49389 | 34090 ft | 429 kts | 246° |
| 2026-05-07 11:29 | -39.13993 | -130.56678 | 34088 ft | 429 kts | 246° |
| 2026-05-07 11:30 | -39.15775 | -130.63996 | 34096 ft | 429 kts | 246° |
| 2026-05-07 11:30 | -39.17553 | -130.71318 | 34091 ft | 428 kts | 246° |
| 2026-05-07 11:31 | -39.19330 | -130.78663 | 34092 ft | 428 kts | 246° |
| 2026-05-07 11:31 | -39.21096 | -130.85986 | 34096 ft | 427 kts | 246° |
| 2026-05-07 11:32 | -39.23727 | -130.96925 | 34095 ft | 426 kts | 246° |
| 2026-05-07 11:33 | -39.25487 | -131.04273 | 34094 ft | 426 kts | 246° |
| 2026-05-07 11:33 | -39.27216 | -131.11528 | 34089 ft | 425 kts | 246° |
| 2026-05-07 11:34 | -39.28952 | -131.18812 | 34088 ft | 425 kts | 246° |
| 2026-05-07 11:34 | -39.30683 | -131.26107 | 34090 ft | 424 kts | 246° |
| 2026-05-07 11:35 | -39.32407 | -131.33401 | 34096 ft | 423 kts | 247° |
| 2026-05-07 11:35 | -39.34116 | -131.40653 | 34098 ft | 423 kts | 246° |
| 2026-05-07 11:36 | -39.35824 | -131.47928 | 34091 ft | 422 kts | 247° |
| 2026-05-07 11:36 | -39.37519 | -131.55164 | 34087 ft | 421 kts | 247° |
| 2026-05-07 11:37 | -39.39211 | -131.62402 | 34095 ft | 421 kts | 247° |
| 2026-05-07 11:37 | -39.40893 | -131.69627 | 34087 ft | 421 kts | 247° |
| 2026-05-07 11:38 | -39.42576 | -131.76875 | 34086 ft | 421 kts | 247° |
| 2026-05-07 11:38 | -39.44254 | -131.84131 | 34078 ft | 420 kts | 247° |
| 2026-05-07 11:39 | -39.45922 | -131.91371 | 34084 ft | 419 kts | 247° |
| 2026-05-07 11:39 | -39.47572 | -131.98542 | 34083 ft | 419 kts | 247° |
| 2026-05-07 11:40 | -39.49230 | -132.05776 | 34086 ft | 418 kts | 247° |
| 2026-05-07 11:40 | -39.50877 | -132.12992 | 34082 ft | 417 kts | 247° |
| 2026-05-07 11:41 | -39.52513 | -132.20181 | 34083 ft | 417 kts | 247° |
| 2026-05-07 11:41 | -39.54151 | -132.27393 | 34084 ft | 417 kts | 247° |
| 2026-05-07 11:42 | -39.55788 | -132.34618 | 34080 ft | 417 kts | 247° |
| 2026-05-07 11:42 | -39.57404 | -132.41789 | 34085 ft | 417 kts | 247° |
| 2026-05-07 11:43 | -39.59029 | -132.49020 | 34079 ft | 417 kts | 247° |
| 2026-05-07 11:43 | -39.60653 | -132.56271 | 34084 ft | 417 kts | 248° |
| 2026-05-07 11:44 | -39.62261 | -132.63473 | 34084 ft | 416 kts | 248° |
| 2026-05-07 11:44 | -39.63864 | -132.70665 | 34083 ft | 417 kts | 248° |
| 2026-05-07 11:45 | -39.65474 | -132.77921 | 34082 ft | 418 kts | 248° |
| 2026-05-07 11:45 | -39.67073 | -132.85152 | 34085 ft | 417 kts | 248° |
| 2026-05-07 11:46 | -39.68676 | -132.92427 | 34081 ft | 417 kts | 248° |
| 2026-05-07 11:46 | -39.70258 | -132.99623 | 34083 ft | 417 kts | 248° |
| 2026-05-07 11:47 | -39.71845 | -133.06866 | 34085 ft | 416 kts | 248° |
| 2026-05-07 11:47 | -39.73423 | -133.14093 | 34084 ft | 416 kts | 248° |
| 2026-05-07 11:48 | -39.74998 | -133.21344 | 34088 ft | 416 kts | 248° |
| 2026-05-07 11:48 | -39.76567 | -133.28571 | 34084 ft | 416 kts | 248° |
| 2026-05-07 11:49 | -39.78139 | -133.35840 | 34082 ft | 415 kts | 249° |
| 2026-05-07 11:49 | -39.79687 | -133.43030 | 34083 ft | 415 kts | 249° |
| 2026-05-07 11:50 | -39.81238 | -133.50256 | 34082 ft | 415 kts | 249° |
| 2026-05-07 11:50 | -39.82783 | -133.57477 | 34080 ft | 415 kts | 249° |
| 2026-05-07 11:51 | -39.84339 | -133.64773 | 34081 ft | 415 kts | 249° |
| 2026-05-07 11:51 | -39.85877 | -133.72005 | 34085 ft | 415 kts | 249° |
| 2026-05-07 11:52 | -39.87403 | -133.79207 | 34084 ft | 415 kts | 249° |
| 2026-05-07 11:52 | -39.88925 | -133.86416 | 34078 ft | 415 kts | 249° |
| 2026-05-07 11:53 | -39.90448 | -133.93661 | 34082 ft | 415 kts | 249° |
| 2026-05-07 11:53 | -39.91966 | -134.00904 | 34082 ft | 415 kts | 249° |
| 2026-05-07 11:54 | -39.93490 | -134.08192 | 34085 ft | 414 kts | 249° |
| 2026-05-07 11:54 | -39.94990 | -134.15403 | 34085 ft | 415 kts | 249° |
| 2026-05-07 11:55 | -39.96501 | -134.22681 | 34082 ft | 415 kts | 249° |
| 2026-05-07 11:55 | -39.98008 | -134.29962 | 34082 ft | 415 kts | 249° |
| 2026-05-07 11:56 | -39.99503 | -134.37209 | 34080 ft | 415 kts | 249° |
| 2026-05-07 11:56 | -40.00991 | -134.44459 | 34088 ft | 415 kts | 249° |
| 2026-05-07 11:57 | -40.02483 | -134.51743 | 34080 ft | 415 kts | 250° |
| 2026-05-07 11:57 | -40.03965 | -134.59010 | 34083 ft | 415 kts | 250° |
| 2026-05-07 11:58 | -40.05447 | -134.66302 | 34088 ft | 415 kts | 250° |
| 2026-05-07 11:58 | -40.06914 | -134.73547 | 34079 ft | 415 kts | 250° |
| 2026-05-07 11:59 | -40.08387 | -134.80848 | 34087 ft | 415 kts | 250° |
| 2026-05-07 11:59 | -40.09858 | -134.88159 | 34078 ft | 415 kts | 250° |
| 2026-05-07 12:00 | -40.11321 | -134.95466 | 34081 ft | 415 kts | 250° |
| 2026-05-07 12:00 | -40.12774 | -135.02731 | 34080 ft | 415 kts | 250° |
| 2026-05-07 12:01 | -40.14226 | -135.10027 | 34083 ft | 415 kts | 250° |
| 2026-05-07 12:01 | -40.15664 | -135.17289 | 34090 ft | 413 kts | 251° |
| 2026-05-07 12:02 | -40.17087 | -135.24501 | 34078 ft | 407 kts | 251° |
| 2026-05-07 12:02 | -40.18507 | -135.31705 | 34088 ft | 408 kts | 251° |
| 2026-05-07 12:03 | -40.19914 | -135.38880 | 34085 ft | 409 kts | 251° |
| 2026-05-07 12:03 | -40.21324 | -135.46095 | 34083 ft | 409 kts | 251° |
| 2026-05-07 12:04 | -40.22727 | -135.53297 | 34082 ft | 409 kts | 251° |
| 2026-05-07 12:04 | -40.24125 | -135.60505 | 34084 ft | 409 kts | 251° |
| 2026-05-07 12:05 | -40.25522 | -135.67725 | 34082 ft | 409 kts | 251° |
| 2026-05-07 12:05 | -40.26911 | -135.74931 | 34079 ft | 409 kts | 251° |
| 2026-05-07 12:06 | -40.28303 | -135.82175 | 34079 ft | 409 kts | 252° |
| 2026-05-07 12:06 | -40.29688 | -135.89422 | 34085 ft | 410 kts | 252° |
| 2026-05-07 12:07 | -40.31060 | -135.96618 | 34082 ft | 410 kts | 252° |
| 2026-05-07 12:07 | -40.32432 | -136.03858 | 34084 ft | 410 kts | 252° |
| 2026-05-07 12:08 | -40.33808 | -136.11127 | 34081 ft | 409 kts | 252° |
| 2026-05-07 12:08 | -40.35171 | -136.18368 | 34087 ft | 409 kts | 252° |
| 2026-05-07 12:09 | -40.36531 | -136.25598 | 34082 ft | 409 kts | 252° |
| 2026-05-07 12:09 | -40.37886 | -136.32844 | 34085 ft | 409 kts | 252° |
| 2026-05-07 12:10 | -40.39233 | -136.40076 | 34077 ft | 409 kts | 252° |
| 2026-05-07 12:10 | -40.40577 | -136.47315 | 34073 ft | 409 kts | 252° |
| 2026-05-07 12:11 | -40.41914 | -136.54548 | 34073 ft | 408 kts | 252° |
| 2026-05-07 12:11 | -40.43250 | -136.61800 | 34073 ft | 408 kts | 252° |
| 2026-05-07 12:12 | -40.44577 | -136.69025 | 34070 ft | 408 kts | 252° |
| 2026-05-07 12:12 | -40.45904 | -136.76286 | 34073 ft | 407 kts | 252° |
| 2026-05-07 12:13 | -40.47214 | -136.83481 | 34075 ft | 407 kts | 252° |
| 2026-05-07 12:13 | -40.48531 | -136.90735 | 34073 ft | 407 kts | 252° |
| 2026-05-07 12:14 | -40.49834 | -136.97935 | 34071 ft | 407 kts | 252° |
| 2026-05-07 12:14 | -40.51141 | -137.05194 | 34075 ft | 407 kts | 252° |
| 2026-05-07 12:15 | -40.52441 | -137.12442 | 34074 ft | 407 kts | 252° |
| 2026-05-07 12:15 | -40.53729 | -137.19654 | 34075 ft | 407 kts | 252° |
| 2026-05-07 12:16 | -40.55021 | -137.26908 | 34075 ft | 407 kts | 252° |
| 2026-05-07 12:16 | -40.56086 | -137.32910 | 34071 ft | 407 kts | 252° |
| 2026-05-07 12:17 | -40.57584 | -137.41387 | 34074 ft | 407 kts | 253° |
| 2026-05-07 12:17 | -40.58651 | -137.47447 | 34074 ft | 407 kts | 253° |
| 2026-05-07 12:18 | -40.59918 | -137.54679 | 34078 ft | 407 kts | 253° |
| 2026-05-07 12:18 | -40.61185 | -137.61933 | 34072 ft | 407 kts | 253° |
| 2026-05-07 12:19 | -40.62444 | -137.69170 | 34074 ft | 406 kts | 253° |
| 2026-05-07 12:19 | -40.63702 | -137.76428 | 34072 ft | 407 kts | 253° |
| 2026-05-07 12:20 | -40.64952 | -137.83671 | 34075 ft | 407 kts | 253° |
| 2026-05-07 12:20 | -40.66205 | -137.90965 | 34075 ft | 407 kts | 253° |
| 2026-05-07 12:21 | -40.67452 | -137.98245 | 34074 ft | 407 kts | 253° |
| 2026-05-07 12:21 | -40.68685 | -138.05471 | 34074 ft | 407 kts | 253° |
| 2026-05-07 12:22 | -40.69923 | -138.12758 | 34075 ft | 408 kts | 253° |
| 2026-05-07 12:22 | -40.71155 | -138.20049 | 34072 ft | 408 kts | 253° |
| 2026-05-07 12:23 | -40.72387 | -138.27360 | 34073 ft | 408 kts | 253° |
| 2026-05-07 12:23 | -40.73614 | -138.34672 | 34078 ft | 408 kts | 253° |
| 2026-05-07 12:24 | -40.74830 | -138.41959 | 34073 ft | 408 kts | 253° |
| 2026-05-07 12:24 | -40.76040 | -138.49230 | 34072 ft | 408 kts | 253° |
| 2026-05-07 12:25 | -40.77251 | -138.56544 | 34075 ft | 408 kts | 253° |
| 2026-05-07 12:25 | -40.78466 | -138.63904 | 34073 ft | 409 kts | 253° |
| 2026-05-07 12:26 | -40.79664 | -138.71194 | 34077 ft | 409 kts | 253° |
| 2026-05-07 12:26 | -40.80870 | -138.78560 | 34075 ft | 410 kts | 253° |
| 2026-05-07 12:27 | -40.82071 | -138.85932 | 34073 ft | 409 kts | 254° |
| 2026-05-07 12:27 | -40.83260 | -138.93266 | 34072 ft | 410 kts | 254° |
| 2026-05-07 12:28 | -40.84453 | -139.00647 | 34077 ft | 411 kts | 254° |
| 2026-05-07 12:28 | -40.85638 | -139.08018 | 34074 ft | 410 kts | 254° |
| 2026-05-07 12:29 | -40.86813 | -139.15358 | 34074 ft | 411 kts | 254° |
| 2026-05-07 12:29 | -40.87992 | -139.22749 | 34075 ft | 411 kts | 254° |
| 2026-05-07 12:30 | -40.89167 | -139.30148 | 34072 ft | 412 kts | 254° |
| 2026-05-07 12:30 | -40.90342 | -139.37592 | 34075 ft | 412 kts | 254° |
| 2026-05-07 12:31 | -40.91513 | -139.45032 | 34076 ft | 412 kts | 254° |
| 2026-05-07 12:31 | -40.92670 | -139.52409 | 34073 ft | 412 kts | 254° |
| 2026-05-07 12:32 | -40.93824 | -139.59815 | 34073 ft | 412 kts | 254° |
| 2026-05-07 12:32 | -40.94982 | -139.67282 | 34073 ft | 412 kts | 254° |
| 2026-05-07 12:33 | -40.96702 | -139.78413 | 34073 ft | 413 kts | 254° |
| 2026-05-07 12:33 | -40.97846 | -139.85872 | 34072 ft | 413 kts | 254° |
| 2026-05-07 12:34 | -40.98985 | -139.93321 | 34072 ft | 413 kts | 255° |
| 2026-05-07 12:34 | -41.00113 | -140.00745 | 34074 ft | 413 kts | 255° |
| 2026-05-07 12:35 | -41.01207 | -140.08212 | 34073 ft | 415 kts | 255° |
| 2026-05-07 12:35 | -41.02292 | -140.15777 | 34074 ft | 416 kts | 255° |
| 2026-05-07 12:36 | -41.03368 | -140.23308 | 34075 ft | 416 kts | 255° |
| 2026-05-07 12:36 | -41.04435 | -140.30792 | 34075 ft | 416 kts | 255° |
| 2026-05-07 12:37 | -41.05503 | -140.38305 | 34073 ft | 416 kts | 255° |
| 2026-05-07 12:37 | -41.06570 | -140.45850 | 34072 ft | 415 kts | 255° |
| 2026-05-07 12:38 | -41.07634 | -140.53410 | 34075 ft | 416 kts | 255° |
| 2026-05-07 12:38 | -41.08686 | -140.60909 | 34074 ft | 416 kts | 255° |
| 2026-05-07 12:39 | -41.09737 | -140.68452 | 34074 ft | 416 kts | 255° |
| 2026-05-07 12:39 | -41.10778 | -140.75960 | 34073 ft | 416 kts | 256° |
| 2026-05-07 12:40 | -41.11820 | -140.83503 | 34074 ft | 417 kts | 256° |
| 2026-05-07 12:40 | -41.12858 | -140.91067 | 34074 ft | 417 kts | 256° |
| 2026-05-07 12:41 | -41.13893 | -140.98639 | 34067 ft | 417 kts | 256° |
| 2026-05-07 12:41 | -41.14922 | -141.06210 | 34159 ft | 419 kts | 256° |
| 2026-05-07 12:42 | -41.15441 | -141.10044 | 34477 ft | 418 kts | 256° |
| 2026-05-07 12:42 | -41.15952 | -141.13826 | 34819 ft | 417 kts | 256° |
| 2026-05-07 12:42 | -41.16456 | -141.17578 | 35121 ft | 416 kts | 256° |
| 2026-05-07 12:42 | -41.16970 | -141.21403 | 35407 ft | 415 kts | 256° |
| 2026-05-07 12:43 | -41.17469 | -141.25124 | 35635 ft | 416 kts | 256° |
| 2026-05-07 12:43 | -41.17977 | -141.28927 | 35885 ft | 416 kts | 256° |
| 2026-05-07 12:43 | -41.18986 | -141.36503 | 36004 ft | 417 kts | 256° |
| 2026-05-07 12:44 | -41.19984 | -141.44040 | 36022 ft | 416 kts | 256° |
| 2026-05-07 12:44 | -41.20986 | -141.51654 | 36028 ft | 415 kts | 256° |
| 2026-05-07 12:45 | -41.21969 | -141.59146 | 36028 ft | 415 kts | 256° |
| 2026-05-07 12:45 | -41.22955 | -141.66714 | 36028 ft | 416 kts | 256° |
| 2026-05-07 12:46 | -41.23937 | -141.74288 | 36028 ft | 416 kts | 256° |
| 2026-05-07 12:46 | -41.24915 | -141.81870 | 36027 ft | 415 kts | 256° |
| 2026-05-07 12:47 | -41.25889 | -141.89462 | 36029 ft | 416 kts | 256° |
| 2026-05-07 12:47 | -41.26853 | -141.97016 | 36027 ft | 416 kts | 256° |
| 2026-05-07 12:48 | -41.27813 | -142.04578 | 36027 ft | 416 kts | 256° |
| 2026-05-07 12:48 | -41.28772 | -142.12179 | 36029 ft | 417 kts | 256° |
| 2026-05-07 12:49 | -41.29722 | -142.19752 | 36027 ft | 416 kts | 256° |
| 2026-05-07 12:49 | -41.30674 | -142.27385 | 36026 ft | 417 kts | 257° |
| 2026-05-07 12:50 | -41.31617 | -142.34979 | 36027 ft | 417 kts | 257° |
| 2026-05-07 12:50 | -41.32557 | -142.42599 | 36028 ft | 417 kts | 257° |
| 2026-05-07 12:51 | -41.33491 | -142.50202 | 36032 ft | 417 kts | 257° |
| 2026-05-07 12:51 | -41.34422 | -142.57843 | 36034 ft | 417 kts | 257° |
| 2026-05-07 12:52 | -41.35348 | -142.65476 | 36035 ft | 418 kts | 257° |
| 2026-05-07 12:52 | -41.36264 | -142.73060 | 36036 ft | 418 kts | 257° |
| 2026-05-07 12:53 | -41.37180 | -142.80710 | 36035 ft | 418 kts | 257° |
| 2026-05-07 12:53 | -41.38093 | -142.88350 | 36034 ft | 419 kts | 257° |
| 2026-05-07 12:54 | -41.39007 | -142.96063 | 36036 ft | 419 kts | 257° |
| 2026-05-07 12:54 | -41.39906 | -143.03695 | 36038 ft | 419 kts | 257° |
| 2026-05-07 12:55 | -41.40801 | -143.11332 | 36037 ft | 419 kts | 257° |
| 2026-05-07 12:55 | -41.41694 | -143.18998 | 36037 ft | 420 kts | 257° |
| 2026-05-07 12:56 | -41.42588 | -143.26726 | 36036 ft | 419 kts | 257° |
| 2026-05-07 12:56 | -41.43469 | -143.34388 | 36036 ft | 420 kts | 257° |
| 2026-05-07 12:57 | -41.44349 | -143.42071 | 36037 ft | 420 kts | 258° |
| 2026-05-07 12:57 | -41.45227 | -143.49792 | 36041 ft | 420 kts | 258° |
| 2026-05-07 12:58 | -41.46092 | -143.57471 | 36035 ft | 420 kts | 258° |
| 2026-05-07 12:58 | -41.46961 | -143.65196 | 36036 ft | 420 kts | 258° |
| 2026-05-07 12:59 | -41.47816 | -143.72858 | 36036 ft | 420 kts | 258° |
| 2026-05-07 12:59 | -41.48672 | -143.80573 | 36037 ft | 420 kts | 258° |
| 2026-05-07 13:00 | -41.49522 | -143.88280 | 36037 ft | 420 kts | 258° |
| 2026-05-07 13:00 | -41.50366 | -143.95996 | 36038 ft | 420 kts | 258° |
| 2026-05-07 13:01 | -41.51207 | -144.03726 | 36038 ft | 420 kts | 258° |
| 2026-05-07 13:01 | -41.52037 | -144.11409 | 36037 ft | 421 kts | 258° |
| 2026-05-07 13:02 | -41.52867 | -144.19142 | 36037 ft | 421 kts | 258° |
| 2026-05-07 13:02 | -41.53694 | -144.26877 | 36045 ft | 421 kts | 258° |
| 2026-05-07 13:03 | -41.54514 | -144.34615 | 36036 ft | 421 kts | 258° |
| 2026-05-07 13:03 | -41.55329 | -144.42360 | 36038 ft | 422 kts | 258° |
| 2026-05-07 13:04 | -41.56141 | -144.50117 | 36038 ft | 422 kts | 258° |
| 2026-05-07 13:04 | -41.56948 | -144.57882 | 36037 ft | 422 kts | 258° |
| 2026-05-07 13:05 | -41.57749 | -144.65651 | 36036 ft | 423 kts | 258° |
| 2026-05-07 13:05 | -41.58547 | -144.73428 | 36034 ft | 423 kts | 259° |
| 2026-05-07 13:06 | -41.59205 | -144.79901 | 36037 ft | 423 kts | 259° |
| 2026-05-07 13:06 | -41.60124 | -144.88959 | 36035 ft | 423 kts | 259° |
| 2026-05-07 13:07 | -41.60907 | -144.96758 | 36051 ft | 424 kts | 259° |
| 2026-05-07 13:07 | -41.61561 | -145.03308 | 36033 ft | 424 kts | 259° |
| 2026-05-07 13:08 | -41.62336 | -145.11123 | 36044 ft | 424 kts | 259° |
| 2026-05-07 13:08 | -41.63101 | -145.18882 | 36037 ft | 424 kts | 259° |
| 2026-05-07 13:09 | -41.63864 | -145.26700 | 36037 ft | 424 kts | 259° |
| 2026-05-07 13:09 | -41.64623 | -145.34526 | 36037 ft | 425 kts | 259° |
| 2026-05-07 13:10 | -41.65377 | -145.42357 | 36036 ft | 425 kts | 259° |
| 2026-05-07 13:10 | -41.66126 | -145.50200 | 36038 ft | 425 kts | 259° |
| 2026-05-07 13:11 | -41.66872 | -145.58042 | 36025 ft | 425 kts | 259° |
| 2026-05-07 13:11 | -41.67611 | -145.65887 | 36017 ft | 425 kts | 259° |
| 2026-05-07 13:12 | -41.68346 | -145.73745 | 36019 ft | 425 kts | 259° |
| 2026-05-07 13:12 | -41.69074 | -145.81597 | 36018 ft | 425 kts | 259° |
| 2026-05-07 13:13 | -41.69798 | -145.89457 | 36019 ft | 425 kts | 259° |
| 2026-05-07 13:13 | -41.70517 | -145.97320 | 36019 ft | 425 kts | 259° |
| 2026-05-07 13:14 | -41.71225 | -146.05120 | 36017 ft | 426 kts | 260° |
| 2026-05-07 13:14 | -41.71936 | -146.13005 | 36019 ft | 427 kts | 260° |
| 2026-05-07 13:15 | -41.72640 | -146.20893 | 36016 ft | 426 kts | 260° |
| 2026-05-07 13:15 | -41.73339 | -146.28774 | 36020 ft | 426 kts | 260° |
| 2026-05-07 13:16 | -41.74030 | -146.36657 | 36017 ft | 426 kts | 260° |
| 2026-05-07 13:16 | -41.74719 | -146.44546 | 36019 ft | 427 kts | 260° |
| 2026-05-07 13:17 | -41.75404 | -146.52449 | 36018 ft | 427 kts | 260° |
| 2026-05-07 13:17 | -41.76078 | -146.60306 | 36020 ft | 428 kts | 260° |
| 2026-05-07 13:18 | -41.76754 | -146.68231 | 36018 ft | 428 kts | 261° |
| 2026-05-07 13:18 | -41.77421 | -146.76159 | 36018 ft | 428 kts | 261° |
| 2026-05-07 13:19 | -41.78084 | -146.84091 | 36019 ft | 429 kts | 261° |
| 2026-05-07 13:19 | -41.78742 | -146.92037 | 36018 ft | 429 kts | 261° |
| 2026-05-07 13:20 | -41.79399 | -147.00002 | 36019 ft | 430 kts | 261° |
| 2026-05-07 13:20 | -41.80051 | -147.07980 | 36019 ft | 431 kts | 261° |
| 2026-05-07 13:21 | -41.80693 | -147.15925 | 36017 ft | 431 kts | 261° |
| 2026-05-07 13:21 | -41.81335 | -147.23925 | 36019 ft | 432 kts | 261° |
| 2026-05-07 13:22 | -41.81972 | -147.31938 | 36020 ft | 432 kts | 261° |
| 2026-05-07 13:22 | -41.82601 | -147.39947 | 36018 ft | 432 kts | 261° |
| 2026-05-07 13:23 | -41.83226 | -147.47956 | 36018 ft | 432 kts | 261° |
| 2026-05-07 13:23 | -41.83848 | -147.55989 | 36020 ft | 433 kts | 261° |
| 2026-05-07 13:24 | -41.84460 | -147.63973 | 36018 ft | 433 kts | 261° |
| 2026-05-07 13:24 | -41.85075 | -147.72068 | 36019 ft | 433 kts | 261° |
| 2026-05-07 13:25 | -41.85676 | -147.80066 | 36019 ft | 433 kts | 261° |
| 2026-05-07 13:25 | -41.86275 | -147.88119 | 36018 ft | 433 kts | 261° |
| 2026-05-07 13:26 | -41.86869 | -147.96173 | 36018 ft | 433 kts | 261° |
| 2026-05-07 13:26 | -41.87457 | -148.04219 | 36018 ft | 433 kts | 261° |
| 2026-05-07 13:27 | -41.88039 | -148.12264 | 36019 ft | 433 kts | 262° |
| 2026-05-07 13:27 | -41.88615 | -148.20313 | 36019 ft | 433 kts | 262° |
| 2026-05-07 13:28 | -41.89187 | -148.28371 | 36020 ft | 434 kts | 262° |
| 2026-05-07 13:28 | -41.89749 | -148.36380 | 36017 ft | 434 kts | 262° |
| 2026-05-07 13:29 | -41.90311 | -148.44446 | 36020 ft | 435 kts | 262° |
| 2026-05-07 13:29 | -41.90867 | -148.52528 | 36019 ft | 435 kts | 262° |
| 2026-05-07 13:30 | -41.91416 | -148.60610 | 36019 ft | 435 kts | 262° |
| 2026-05-07 13:30 | -41.91962 | -148.68696 | 36018 ft | 435 kts | 262° |
| 2026-05-07 13:31 | -41.92502 | -148.76797 | 36017 ft | 436 kts | 262° |
| 2026-05-07 13:31 | -41.93036 | -148.84921 | 36020 ft | 436 kts | 262° |
| 2026-05-07 13:32 | -41.93565 | -148.93031 | 36016 ft | 436 kts | 262° |
| 2026-05-07 13:32 | -41.94088 | -149.01147 | 36018 ft | 436 kts | 262° |
| 2026-05-07 13:33 | -41.94607 | -149.09277 | 36019 ft | 437 kts | 262° |
| 2026-05-07 13:33 | -41.95121 | -149.17410 | 36019 ft | 437 kts | 262° |
| 2026-05-07 13:34 | -41.95877 | -149.29580 | 36019 ft | 438 kts | 263° |
| 2026-05-07 13:35 | -41.96378 | -149.37736 | 36020 ft | 438 kts | 263° |
| 2026-05-07 13:35 | -41.96872 | -149.45902 | 36018 ft | 438 kts | 263° |
| 2026-05-07 13:36 | -41.97362 | -149.54064 | 36018 ft | 438 kts | 263° |
| 2026-05-07 13:36 | -41.97844 | -149.62248 | 36018 ft | 439 kts | 263° |
| 2026-05-07 13:37 | -41.98319 | -149.70387 | 36009 ft | 439 kts | 263° |
| 2026-05-07 13:37 | -41.98793 | -149.78586 | 35999 ft | 440 kts | 263° |
| 2026-05-07 13:38 | -41.99260 | -149.86799 | 35997 ft | 440 kts | 263° |
| 2026-05-07 13:38 | -41.99722 | -149.94999 | 36002 ft | 440 kts | 263° |
| 2026-05-07 13:39 | -42.00165 | -150.03203 | 35997 ft | 440 kts | 264° |
| 2026-05-07 13:39 | -42.00518 | -150.11375 | 36000 ft | 440 kts | 264° |
| 2026-05-07 13:40 | -42.00846 | -150.19593 | 36000 ft | 440 kts | 264° |
| 2026-05-07 13:40 | -42.01176 | -150.27814 | 35998 ft | 440 kts | 264° |
| 2026-05-07 13:41 | -42.01512 | -150.36042 | 36000 ft | 440 kts | 264° |
| 2026-05-07 13:41 | -42.01842 | -150.44274 | 35999 ft | 440 kts | 264° |
| 2026-05-07 13:42 | -42.02164 | -150.52499 | 36000 ft | 440 kts | 264° |
| 2026-05-07 13:42 | -42.02482 | -150.60720 | 36000 ft | 440 kts | 264° |
| 2026-05-07 13:43 | -42.02791 | -150.68895 | 36007 ft | 440 kts | 264° |
| 2026-05-07 13:43 | -42.03096 | -150.77123 | 35998 ft | 440 kts | 264° |
| 2026-05-07 13:44 | -42.03393 | -150.85331 | 36000 ft | 440 kts | 264° |
| 2026-05-07 13:44 | -42.03688 | -150.93554 | 36001 ft | 440 kts | 264° |
| 2026-05-07 13:45 | -42.03976 | -151.01778 | 35999 ft | 440 kts | 264° |
| 2026-05-07 13:45 | -42.04258 | -151.10013 | 35999 ft | 440 kts | 264° |
| 2026-05-07 13:46 | -42.04534 | -151.18246 | 36003 ft | 440 kts | 264° |
| 2026-05-07 13:46 | -42.04802 | -151.26425 | 36003 ft | 440 kts | 264° |
| 2026-05-07 13:47 | -42.05067 | -151.34664 | 35996 ft | 440 kts | 265° |
| 2026-05-07 13:47 | -42.05326 | -151.42901 | 35998 ft | 440 kts | 265° |
| 2026-05-07 13:48 | -42.05579 | -151.51139 | 35999 ft | 440 kts | 265° |
| 2026-05-07 13:48 | -42.05825 | -151.59375 | 35999 ft | 441 kts | 265° |
| 2026-05-07 13:49 | -42.06066 | -151.67619 | 35998 ft | 441 kts | 265° |
| 2026-05-07 13:49 | -42.06301 | -151.75814 | 36001 ft | 441 kts | 265° |
| 2026-05-07 13:50 | -42.06529 | -151.84059 | 35998 ft | 441 kts | 265° |
| 2026-05-07 13:50 | -42.06753 | -151.92308 | 36001 ft | 441 kts | 265° |
| 2026-05-07 13:51 | -42.06971 | -152.00563 | 35999 ft | 441 kts | 265° |
| 2026-05-07 13:51 | -42.07182 | -152.08804 | 35999 ft | 441 kts | 265° |
| 2026-05-07 13:52 | -42.07388 | -152.17059 | 36004 ft | 441 kts | 265° |
| 2026-05-07 13:52 | -42.07588 | -152.25309 | 35999 ft | 441 kts | 265° |
| 2026-05-07 13:53 | -42.07780 | -152.33514 | 36003 ft | 441 kts | 265° |
| 2026-05-07 13:53 | -42.07968 | -152.41766 | 36005 ft | 441 kts | 265° |
| 2026-05-07 13:54 | -42.08153 | -152.50029 | 35999 ft | 441 kts | 265° |
| 2026-05-07 13:54 | -42.08298 | -152.56887 | 36000 ft | 441 kts | 265° |
| 2026-05-07 13:55 | -42.08469 | -152.65141 | 35997 ft | 441 kts | 265° |
| 2026-05-07 13:55 | -42.08635 | -152.73398 | 36003 ft | 442 kts | 265° |
| 2026-05-07 13:56 | -42.08795 | -152.81670 | 36002 ft | 442 kts | 265° |
| 2026-05-07 13:56 | -42.08949 | -152.89953 | 36004 ft | 442 kts | 266° |
| 2026-05-07 13:57 | -42.09097 | -152.98221 | 36001 ft | 442 kts | 266° |
| 2026-05-07 13:57 | -42.09238 | -153.06493 | 36001 ft | 442 kts | 266° |
| 2026-05-07 13:58 | -42.09374 | -153.14716 | 35999 ft | 442 kts | 266° |
| 2026-05-07 13:58 | -42.09504 | -153.22996 | 35998 ft | 442 kts | 266° |
| 2026-05-07 13:59 | -42.09627 | -153.31278 | 36006 ft | 443 kts | 266° |
| 2026-05-07 13:59 | -42.09746 | -153.39565 | 36000 ft | 443 kts | 266° |
| 2026-05-07 14:00 | -42.09858 | -153.47856 | 36005 ft | 442 kts | 266° |
| 2026-05-07 14:00 | -42.09965 | -153.56132 | 35996 ft | 442 kts | 266° |
| 2026-05-07 14:01 | -42.10066 | -153.64411 | 36002 ft | 442 kts | 266° |
| 2026-05-07 14:01 | -42.10160 | -153.72679 | 36003 ft | 442 kts | 266° |
| 2026-05-07 14:02 | -42.10250 | -153.80960 | 36000 ft | 442 kts | 266° |
| 2026-05-07 14:02 | -42.10331 | -153.89241 | 35998 ft | 442 kts | 266° |
| 2026-05-07 14:03 | -42.10407 | -153.97519 | 36002 ft | 442 kts | 266° |
| 2026-05-07 14:03 | -42.10478 | -154.05798 | 35999 ft | 442 kts | 266° |
| 2026-05-07 14:04 | -42.10542 | -154.14035 | 35998 ft | 442 kts | 266° |
| 2026-05-07 14:04 | -42.10602 | -154.22316 | 36000 ft | 442 kts | 266° |
| 2026-05-07 14:05 | -42.10655 | -154.30595 | 35998 ft | 442 kts | 266° |
| 2026-05-07 14:05 | -42.10703 | -154.38891 | 36001 ft | 442 kts | 267° |
| 2026-05-07 14:06 | -42.10743 | -154.47183 | 36000 ft | 442 kts | 267° |
| 2026-05-07 14:06 | -42.10778 | -154.55478 | 36005 ft | 443 kts | 267° |
| 2026-05-07 14:07 | -42.10807 | -154.63778 | 36002 ft | 443 kts | 267° |
| 2026-05-07 14:07 | -42.10830 | -154.72071 | 35996 ft | 443 kts | 267° |
| 2026-05-07 14:08 | -42.10847 | -154.80307 | 35999 ft | 443 kts | 267° |
| 2026-05-07 14:08 | -42.10858 | -154.88612 | 36000 ft | 443 kts | 267° |
| 2026-05-07 14:09 | -42.10863 | -154.96909 | 36000 ft | 443 kts | 267° |
| 2026-05-07 14:09 | -42.10863 | -155.05221 | 36000 ft | 443 kts | 268° |
| 2026-05-07 14:10 | -42.10856 | -155.13533 | 35998 ft | 443 kts | 268° |
| 2026-05-07 14:10 | -42.10843 | -155.21838 | 36000 ft | 443 kts | 268° |
| 2026-05-07 14:11 | -42.10824 | -155.30095 | 35999 ft | 443 kts | 268° |
| 2026-05-07 14:11 | -42.10800 | -155.38390 | 35999 ft | 443 kts | 268° |
| 2026-05-07 14:12 | -42.10770 | -155.46691 | 36001 ft | 443 kts | 268° |
| 2026-05-07 14:12 | -42.10733 | -155.54975 | 35999 ft | 443 kts | 268° |
| 2026-05-07 14:13 | -42.10690 | -155.63286 | 36001 ft | 443 kts | 268° |
| 2026-05-07 14:13 | -42.10641 | -155.71570 | 35998 ft | 442 kts | 268° |
| 2026-05-07 14:14 | -42.10587 | -155.79843 | 35999 ft | 442 kts | 268° |
| 2026-05-07 14:14 | -42.10526 | -155.88117 | 36001 ft | 442 kts | 268° |
| 2026-05-07 14:15 | -42.10461 | -155.96402 | 36000 ft | 442 kts | 268° |
| 2026-05-07 14:15 | -42.10388 | -156.04680 | 36003 ft | 442 kts | 268° |
| 2026-05-07 14:16 | -42.10309 | -156.12960 | 36002 ft | 442 kts | 268° |
| 2026-05-07 14:16 | -42.10226 | -156.21185 | 36000 ft | 442 kts | 268° |
| 2026-05-07 14:17 | -42.10137 | -156.29468 | 36003 ft | 442 kts | 268° |
| 2026-05-07 14:17 | -42.10041 | -156.37756 | 35999 ft | 442 kts | 269° |
| 2026-05-07 14:18 | -42.09938 | -156.46048 | 36000 ft | 443 kts | 269° |
| 2026-05-07 14:18 | -42.09831 | -156.54291 | 36002 ft | 443 kts | 269° |
| 2026-05-07 14:19 | -42.09717 | -156.62588 | 35998 ft | 443 kts | 269° |
| 2026-05-07 14:19 | -42.09596 | -156.70881 | 36000 ft | 443 kts | 269° |
| 2026-05-07 14:20 | -42.09468 | -156.79190 | 36001 ft | 443 kts | 269° |
| 2026-05-07 14:20 | -42.09338 | -156.87421 | 36000 ft | 442 kts | 269° |
| 2026-05-07 14:21 | -42.09201 | -156.95721 | 36001 ft | 443 kts | 269° |
| 2026-05-07 14:21 | -42.09058 | -157.04024 | 36000 ft | 443 kts | 269° |
| 2026-05-07 14:22 | -42.08907 | -157.12315 | 36006 ft | 443 kts | 269° |
| 2026-05-07 14:22 | -42.08750 | -157.20604 | 36002 ft | 443 kts | 269° |
| 2026-05-07 14:23 | -42.08589 | -157.28885 | 36002 ft | 442 kts | 269° |
| 2026-05-07 14:23 | -42.08423 | -157.37106 | 35998 ft | 443 kts | 269° |
| 2026-05-07 14:24 | -42.08249 | -157.45396 | 36007 ft | 443 kts | 269° |
| 2026-05-07 14:24 | -42.08069 | -157.53684 | 36010 ft | 443 kts | 270° |
| 2026-05-07 14:25 | -42.07884 | -157.61978 | 36006 ft | 443 kts | 270° |
| 2026-05-07 14:25 | -42.07692 | -157.70265 | 36009 ft | 443 kts | 270° |
| 2026-05-07 14:26 | -42.07493 | -157.78562 | 36010 ft | 443 kts | 270° |
| 2026-05-07 14:26 | -42.07291 | -157.86798 | 36008 ft | 443 kts | 270° |
| 2026-05-07 14:27 | -42.07083 | -157.95085 | 36009 ft | 443 kts | 270° |
| 2026-05-07 14:27 | -42.06867 | -158.03377 | 36008 ft | 443 kts | 270° |
| 2026-05-07 14:28 | -42.06645 | -158.11665 | 36008 ft | 443 kts | 270° |
| 2026-05-07 14:28 | -42.06418 | -158.19956 | 36008 ft | 443 kts | 270° |
| 2026-05-07 14:29 | -42.06186 | -158.28186 | 36011 ft | 443 kts | 270° |
| 2026-05-07 14:29 | -42.05946 | -158.36481 | 36009 ft | 443 kts | 270° |
| 2026-05-07 14:30 | -42.05702 | -158.44765 | 36009 ft | 443 kts | 270° |
| 2026-05-07 14:30 | -42.05450 | -158.53041 | 36008 ft | 443 kts | 270° |
| 2026-05-07 14:31 | -42.05194 | -158.61317 | 36008 ft | 443 kts | 270° |
| 2026-05-07 14:31 | -42.04931 | -158.69594 | 36009 ft | 443 kts | 270° |
| 2026-05-07 14:32 | -42.04662 | -158.77877 | 36013 ft | 443 kts | 271° |
| 2026-05-07 14:32 | -42.04387 | -158.86118 | 36011 ft | 444 kts | 271° |
| 2026-05-07 14:33 | -42.04107 | -158.94408 | 36008 ft | 444 kts | 271° |
| 2026-05-07 14:33 | -42.03819 | -159.02707 | 36007 ft | 443 kts | 271° |
| 2026-05-07 14:34 | -42.03525 | -159.10995 | 36008 ft | 443 kts | 271° |
| 2026-05-07 14:34 | -42.03227 | -159.19281 | 36008 ft | 444 kts | 271° |
| 2026-05-07 14:35 | -42.02921 | -159.27575 | 36007 ft | 444 kts | 271° |
| 2026-05-07 14:35 | -42.02609 | -159.35869 | 36009 ft | 443 kts | 271° |
| 2026-05-07 14:36 | -42.02293 | -159.44134 | 36010 ft | 443 kts | 271° |
| 2026-05-07 14:36 | -42.01971 | -159.52401 | 36008 ft | 443 kts | 271° |
| 2026-05-07 14:37 | -42.01645 | -159.60628 | 36009 ft | 443 kts | 271° |
| 2026-05-07 14:37 | -42.01140 | -159.73043 | 36012 ft | 443 kts | 271° |
| 2026-05-07 14:38 | -42.00798 | -159.81320 | 36009 ft | 443 kts | 272° |
| 2026-05-07 14:38 | -42.00448 | -159.89599 | 35986 ft | 443 kts | 272° |
| 2026-05-07 14:39 | -42.00095 | -159.97833 | 35975 ft | 443 kts | 272° |
| 2026-05-07 14:39 | -41.99693 | -160.06090 | 35971 ft | 443 kts | 272° |
| 2026-05-07 14:40 | -41.99215 | -160.14365 | 35973 ft | 443 kts | 273° |
| 2026-05-07 14:40 | -41.98727 | -160.22631 | 35973 ft | 443 kts | 273° |
| 2026-05-07 14:41 | -41.98243 | -160.30903 | 35979 ft | 443 kts | 273° |
| 2026-05-07 14:41 | -41.97841 | -160.37759 | 35981 ft | 442 kts | 273° |
| 2026-05-07 14:42 | -41.97275 | -160.47338 | 35983 ft | 442 kts | 273° |
| 2026-05-07 14:42 | -41.96861 | -160.54228 | 35980 ft | 441 kts | 273° |
| 2026-05-07 14:43 | -41.96365 | -160.62445 | 35983 ft | 441 kts | 273° |
| 2026-05-07 14:43 | -41.95863 | -160.70627 | 35980 ft | 442 kts | 273° |
| 2026-05-07 14:44 | -41.95353 | -160.78841 | 35982 ft | 441 kts | 273° |
| 2026-05-07 14:44 | -41.94839 | -160.87059 | 35982 ft | 440 kts | 273° |
| 2026-05-07 14:45 | -41.94316 | -160.95274 | 35981 ft | 441 kts | 273° |
| 2026-05-07 14:45 | -41.93791 | -161.03467 | 35981 ft | 440 kts | 274° |
| 2026-05-07 14:46 | -41.93261 | -161.11613 | 35981 ft | 441 kts | 274° |
| 2026-05-07 14:46 | -41.92721 | -161.19816 | 35981 ft | 441 kts | 274° |
| 2026-05-07 14:47 | -41.92177 | -161.28034 | 35983 ft | 442 kts | 274° |
| 2026-05-07 14:47 | -41.91625 | -161.36265 | 35981 ft | 442 kts | 274° |
| 2026-05-07 14:48 | -41.91068 | -161.44489 | 35982 ft | 443 kts | 274° |
| 2026-05-07 14:48 | -41.90502 | -161.52734 | 35981 ft | 443 kts | 274° |
| 2026-05-07 14:49 | -41.89932 | -161.60977 | 35981 ft | 443 kts | 274° |
| 2026-05-07 14:49 | -41.89357 | -161.69214 | 35982 ft | 444 kts | 274° |
| 2026-05-07 14:50 | -41.88772 | -161.77468 | 35983 ft | 444 kts | 274° |
| 2026-05-07 14:50 | -41.88181 | -161.85731 | 35981 ft | 445 kts | 274° |
| 2026-05-07 14:51 | -41.87588 | -161.93942 | 35982 ft | 445 kts | 274° |
| 2026-05-07 14:51 | -41.86986 | -162.02210 | 35980 ft | 445 kts | 274° |
| 2026-05-07 14:52 | -41.86377 | -162.10481 | 35982 ft | 445 kts | 274° |
| 2026-05-07 14:52 | -41.85762 | -162.18747 | 35982 ft | 445 kts | 274° |
| 2026-05-07 14:53 | -41.85142 | -162.26999 | 35980 ft | 444 kts | 274° |
| 2026-05-07 14:53 | -41.84517 | -162.35248 | 35983 ft | 444 kts | 274° |
| 2026-05-07 14:54 | -41.83886 | -162.43482 | 35980 ft | 443 kts | 274° |
| 2026-05-07 14:54 | -41.83254 | -162.51660 | 35981 ft | 443 kts | 275° |
| 2026-05-07 14:55 | -41.82612 | -162.59881 | 35981 ft | 443 kts | 275° |
| 2026-05-07 14:55 | -41.81966 | -162.68091 | 35983 ft | 442 kts | 275° |
| 2026-05-07 14:56 | -41.81315 | -162.76287 | 35979 ft | 442 kts | 275° |
| 2026-05-07 14:56 | -41.80658 | -162.84476 | 35972 ft | 441 kts | 275° |
| 2026-05-07 14:57 | -41.79998 | -162.92640 | 35972 ft | 441 kts | 275° |
| 2026-05-07 14:57 | -41.79335 | -163.00751 | 35972 ft | 441 kts | 275° |
| 2026-05-07 14:58 | -41.78662 | -163.08923 | 35974 ft | 440 kts | 275° |
| 2026-05-07 14:58 | -41.77983 | -163.17079 | 35970 ft | 440 kts | 275° |
| 2026-05-07 14:59 | -41.77301 | -163.25230 | 35975 ft | 440 kts | 275° |
| 2026-05-07 14:59 | -41.76612 | -163.33390 | 35972 ft | 440 kts | 275° |
| 2026-05-07 15:00 | -41.75918 | -163.41536 | 35972 ft | 440 kts | 275° |
| 2026-05-07 15:00 | -41.75217 | -163.49677 | 35974 ft | 441 kts | 275° |
| 2026-05-07 15:01 | -41.74509 | -163.57838 | 35967 ft | 442 kts | 275° |
| 2026-05-07 15:01 | -41.73796 | -163.65999 | 35972 ft | 446 kts | 275° |
| 2026-05-07 15:02 | -41.73068 | -163.74256 | 35961 ft | 446 kts | 275° |
| 2026-05-07 15:02 | -41.72335 | -163.82507 | 35964 ft | 446 kts | 275° |
| 2026-05-07 15:03 | -41.71594 | -163.90769 | 35961 ft | 447 kts | 275° |
| 2026-05-07 15:03 | -41.70846 | -163.99033 | 35964 ft | 447 kts | 275° |
| 2026-05-07 15:04 | -41.70094 | -164.07294 | 35962 ft | 447 kts | 275° |
| 2026-05-07 15:04 | -41.69339 | -164.15508 | 35963 ft | 447 kts | 275° |
| 2026-05-07 15:05 | -41.68575 | -164.23760 | 35963 ft | 447 kts | 275° |
| 2026-05-07 15:05 | -41.67806 | -164.32008 | 35966 ft | 446 kts | 275° |
| 2026-05-07 15:06 | -41.67032 | -164.40241 | 35974 ft | 446 kts | 275° |
| 2026-05-07 15:06 | -41.66251 | -164.48466 | 35971 ft | 445 kts | 275° |
| 2026-05-07 15:07 | -41.65466 | -164.56669 | 35972 ft | 445 kts | 275° |
| 2026-05-07 15:07 | -41.64675 | -164.64884 | 35973 ft | 445 kts | 275° |
| 2026-05-07 15:08 | -41.63881 | -164.73082 | 35972 ft | 444 kts | 276° |
| 2026-05-07 15:08 | -41.63081 | -164.81256 | 35972 ft | 444 kts | 276° |
| 2026-05-07 15:09 | -41.62275 | -164.89443 | 35973 ft | 444 kts | 276° |
| 2026-05-07 15:09 | -41.61463 | -164.97627 | 35968 ft | 444 kts | 276° |
| 2026-05-07 15:10 | -41.60646 | -165.05807 | 35962 ft | 444 kts | 276° |
| 2026-05-07 15:10 | -41.59823 | -165.13993 | 35965 ft | 445 kts | 276° |
| 2026-05-07 15:11 | -41.58997 | -165.22139 | 35972 ft | 445 kts | 276° |
| 2026-05-07 15:11 | -41.58158 | -165.30349 | 35973 ft | 446 kts | 276° |
| 2026-05-07 15:12 | -41.57311 | -165.38574 | 35973 ft | 446 kts | 276° |
| 2026-05-07 15:12 | -41.56460 | -165.46786 | 35973 ft | 447 kts | 276° |
| 2026-05-07 15:13 | -41.55603 | -165.55007 | 35970 ft | 447 kts | 276° |
| 2026-05-07 15:13 | -41.54737 | -165.63248 | 35974 ft | 448 kts | 276° |
| 2026-05-07 15:14 | -41.53866 | -165.71477 | 35973 ft | 449 kts | 276° |
| 2026-05-07 15:14 | -41.52990 | -165.79691 | 35972 ft | 449 kts | 276° |
| 2026-05-07 15:15 | -41.52101 | -165.87973 | 35971 ft | 450 kts | 276° |
| 2026-05-07 15:15 | -41.51210 | -165.96223 | 35973 ft | 450 kts | 276° |
| 2026-05-07 15:16 | -41.50313 | -166.04458 | 35971 ft | 450 kts | 276° |
| 2026-05-07 15:16 | -41.49404 | -166.12753 | 35974 ft | 450 kts | 276° |
| 2026-05-07 15:17 | -41.48495 | -166.20992 | 35971 ft | 450 kts | 276° |
| 2026-05-07 15:17 | -41.47583 | -166.29209 | 35972 ft | 449 kts | 276° |
| 2026-05-07 15:18 | -41.46662 | -166.37445 | 35974 ft | 449 kts | 277° |
| 2026-05-07 15:18 | -41.45736 | -166.45686 | 35972 ft | 449 kts | 277° |
| 2026-05-07 15:19 | -41.44805 | -166.53898 | 35972 ft | 449 kts | 277° |
| 2026-05-07 15:19 | -41.43865 | -166.62132 | 35974 ft | 449 kts | 277° |
| 2026-05-07 15:20 | -41.42919 | -166.70374 | 35972 ft | 449 kts | 277° |
| 2026-05-07 15:20 | -41.41973 | -166.78560 | 35973 ft | 449 kts | 277° |
| 2026-05-07 15:21 | -41.41018 | -166.86776 | 35972 ft | 448 kts | 277° |
| 2026-05-07 15:21 | -41.40062 | -166.94951 | 35972 ft | 448 kts | 277° |
| 2026-05-07 15:22 | -41.39090 | -167.03193 | 35973 ft | 448 kts | 277° |
| 2026-05-07 15:22 | -41.38124 | -167.11353 | 35971 ft | 448 kts | 277° |
| 2026-05-07 15:23 | -41.37142 | -167.19588 | 35972 ft | 449 kts | 277° |
| 2026-05-07 15:23 | -41.36159 | -167.27785 | 35975 ft | 450 kts | 277° |
| 2026-05-07 15:24 | -41.35167 | -167.35983 | 35972 ft | 450 kts | 277° |
| 2026-05-07 15:24 | -41.34168 | -167.44218 | 35970 ft | 450 kts | 277° |
| 2026-05-07 15:25 | -41.33165 | -167.52438 | 35949 ft | 451 kts | 277° |
| 2026-05-07 15:25 | -41.32151 | -167.60676 | 35941 ft | 451 kts | 278° |
| 2026-05-07 15:26 | -41.31130 | -167.68926 | 35935 ft | 451 kts | 278° |
| 2026-05-07 15:26 | -41.30105 | -167.77154 | 35935 ft | 451 kts | 278° |
| 2026-05-07 15:27 | -41.29080 | -167.85344 | 35936 ft | 452 kts | 278° |
| 2026-05-07 15:27 | -41.28032 | -167.93658 | 35935 ft | 452 kts | 278° |
| 2026-05-07 15:28 | -41.26991 | -168.01875 | 35935 ft | 452 kts | 278° |
| 2026-05-07 15:28 | -41.25940 | -168.10109 | 35936 ft | 454 kts | 278° |
| 2026-05-07 15:29 | -41.24879 | -168.18383 | 35936 ft | 454 kts | 278° |
| 2026-05-07 15:29 | -41.23991 | -168.25273 | 35934 ft | 454 kts | 278° |
| 2026-05-07 15:30 | -41.22921 | -168.33520 | 35937 ft | 454 kts | 278° |
| 2026-05-07 15:30 | -41.21844 | -168.41786 | 35934 ft | 453 kts | 278° |
| 2026-05-07 15:31 | -41.20762 | -168.50025 | 35936 ft | 453 kts | 278° |
| 2026-05-07 15:31 | -41.19674 | -168.58268 | 35935 ft | 452 kts | 278° |
| 2026-05-07 15:32 | -41.18589 | -168.66457 | 35936 ft | 452 kts | 278° |
| 2026-05-07 15:32 | -41.17495 | -168.74664 | 35934 ft | 452 kts | 278° |
| 2026-05-07 15:33 | -41.16382 | -168.82943 | 35936 ft | 453 kts | 279° |
| 2026-05-07 15:33 | -41.15273 | -168.91156 | 35935 ft | 453 kts | 279° |
| 2026-05-07 15:34 | -41.14159 | -168.99377 | 35937 ft | 453 kts | 279° |
| 2026-05-07 15:34 | -41.13036 | -169.07601 | 35935 ft | 453 kts | 279° |
| 2026-05-07 15:35 | -41.11914 | -169.15769 | 35935 ft | 453 kts | 279° |
| 2026-05-07 15:35 | -41.10780 | -169.23995 | 35937 ft | 454 kts | 279° |
| 2026-05-07 15:36 | -41.09636 | -169.32242 | 35936 ft | 454 kts | 279° |
| 2026-05-07 15:36 | -41.08488 | -169.40475 | 35935 ft | 454 kts | 279° |
| 2026-05-07 15:37 | -41.07335 | -169.48700 | 35933 ft | 454 kts | 279° |
| 2026-05-07 15:37 | -41.06174 | -169.56929 | 35938 ft | 454 kts | 279° |
| 2026-05-07 15:38 | -41.05009 | -169.65152 | 35933 ft | 454 kts | 279° |
| 2026-05-07 15:38 | -41.03837 | -169.73382 | 35936 ft | 454 kts | 279° |
| 2026-05-07 15:39 | -41.02667 | -169.81541 | 35934 ft | 454 kts | 279° |
| 2026-05-07 15:39 | -41.01484 | -169.89748 | 35937 ft | 453 kts | 279° |
| 2026-05-07 15:40 | -41.00299 | -169.97945 | 35922 ft | 454 kts | 279° |
| 2026-05-07 15:40 | -40.98999 | -170.06136 | 35900 ft | 455 kts | 282° |
| 2026-05-07 15:41 | -40.97507 | -170.14297 | 35899 ft | 457 kts | 282° |
| 2026-05-07 15:41 | -40.95998 | -170.22458 | 35897 ft | 456 kts | 282° |
| 2026-05-07 15:42 | -40.94509 | -170.30616 | 35898 ft | 456 kts | 282° |
| 2026-05-07 15:42 | -40.93029 | -170.38771 | 35898 ft | 456 kts | 282° |
| 2026-05-07 15:43 | -40.91548 | -170.46925 | 35899 ft | 456 kts | 282° |
| 2026-05-07 15:43 | -40.90062 | -170.55068 | 35898 ft | 456 kts | 282° |
| 2026-05-07 15:44 | -40.88565 | -170.63227 | 35898 ft | 456 kts | 283° |
| 2026-05-07 15:44 | -40.87075 | -170.71313 | 35898 ft | 456 kts | 283° |
| 2026-05-07 15:45 | -40.85568 | -170.79455 | 35899 ft | 457 kts | 283° |
| 2026-05-07 15:45 | -40.84045 | -170.87650 | 35899 ft | 457 kts | 283° |
| 2026-05-07 15:46 | -40.81770 | -170.99824 | 35898 ft | 457 kts | 283° |
| 2026-05-07 15:47 | -40.80243 | -171.07958 | 35898 ft | 457 kts | 283° |
| 2026-05-07 15:47 | -40.78706 | -171.16112 | 35898 ft | 458 kts | 283° |
| 2026-05-07 15:48 | -40.77164 | -171.24255 | 35898 ft | 458 kts | 283° |
| 2026-05-07 15:48 | -40.75616 | -171.32398 | 35899 ft | 457 kts | 283° |
| 2026-05-07 15:49 | -40.74067 | -171.40505 | 35900 ft | 458 kts | 283° |
| 2026-05-07 15:49 | -40.72504 | -171.48648 | 35898 ft | 458 kts | 283° |
| 2026-05-07 15:50 | -40.70935 | -171.56801 | 35898 ft | 458 kts | 283° |
| 2026-05-07 15:50 | -40.69363 | -171.64933 | 35898 ft | 458 kts | 283° |
| 2026-05-07 15:51 | -40.67784 | -171.73064 | 35898 ft | 458 kts | 284° |
| 2026-05-07 15:51 | -40.66202 | -171.81185 | 35897 ft | 458 kts | 284° |
| 2026-05-07 15:52 | -40.64619 | -171.89273 | 35899 ft | 458 kts | 284° |
| 2026-05-07 15:52 | -40.63023 | -171.97397 | 35899 ft | 458 kts | 284° |
| 2026-05-07 15:53 | -40.61420 | -172.05513 | 35894 ft | 459 kts | 284° |
| 2026-05-07 15:53 | -40.59808 | -172.13653 | 35901 ft | 460 kts | 284° |
| 2026-05-07 15:54 | -40.58187 | -172.21807 | 35897 ft | 460 kts | 284° |
| 2026-05-07 15:54 | -40.56562 | -172.29942 | 35898 ft | 460 kts | 284° |
| 2026-05-07 15:55 | -40.54941 | -172.38022 | 35898 ft | 460 kts | 284° |
| 2026-05-07 15:55 | -40.53303 | -172.46156 | 35898 ft | 461 kts | 284° |
| 2026-05-07 15:56 | -40.51657 | -172.54306 | 35897 ft | 461 kts | 284° |
| 2026-05-07 15:56 | -40.50004 | -172.62458 | 35899 ft | 462 kts | 284° |
| 2026-05-07 15:57 | -40.48343 | -172.70609 | 35899 ft | 462 kts | 284° |
| 2026-05-07 15:57 | -40.46677 | -172.78759 | 35897 ft | 462 kts | 284° |
| 2026-05-07 15:58 | -40.45003 | -172.86913 | 35899 ft | 463 kts | 284° |
| 2026-05-07 15:58 | -40.43320 | -172.95073 | 35896 ft | 463 kts | 284° |
| 2026-05-07 15:59 | -40.41631 | -173.03241 | 35900 ft | 465 kts | 284° |
| 2026-05-07 15:59 | -40.39931 | -173.11427 | 35896 ft | 465 kts | 284° |
| 2026-05-07 16:00 | -40.38219 | -173.19632 | 35901 ft | 466 kts | 284° |
| 2026-05-07 16:00 | -40.36515 | -173.27775 | 35899 ft | 467 kts | 285° |
| 2026-05-07 16:01 | -40.34789 | -173.35987 | 35898 ft | 467 kts | 285° |
| 2026-05-07 16:01 | -40.33045 | -173.44247 | 35900 ft | 468 kts | 285° |
| 2026-05-07 16:02 | -40.31313 | -173.52425 | 35896 ft | 469 kts | 285° |
| 2026-05-07 16:02 | -40.29564 | -173.60656 | 35899 ft | 469 kts | 285° |
| 2026-05-07 16:03 | -40.27809 | -173.68886 | 35898 ft | 469 kts | 285° |
| 2026-05-07 16:03 | -40.26048 | -173.77099 | 35899 ft | 470 kts | 285° |
| 2026-05-07 16:04 | -40.24276 | -173.85337 | 35894 ft | 470 kts | 285° |
| 2026-05-07 16:04 | -40.22495 | -173.93580 | 35900 ft | 470 kts | 285° |
| 2026-05-07 16:05 | -40.20710 | -174.01822 | 35898 ft | 470 kts | 285° |
| 2026-05-07 16:05 | -40.18933 | -174.10000 | 35898 ft | 470 kts | 285° |
| 2026-05-07 16:06 | -40.17128 | -174.18259 | 35898 ft | 470 kts | 285° |
| 2026-05-07 16:06 | -40.15338 | -174.26428 | 35898 ft | 470 kts | 285° |
| 2026-05-07 16:07 | -40.13518 | -174.34695 | 35899 ft | 471 kts | 285° |
| 2026-05-07 16:07 | -40.11708 | -174.42891 | 35898 ft | 470 kts | 285° |
| 2026-05-07 16:08 | -40.09886 | -174.51118 | 35899 ft | 471 kts | 285° |
| 2026-05-07 16:08 | -40.08070 | -174.59279 | 35907 ft | 470 kts | 285° |
| 2026-05-07 16:09 | -40.06233 | -174.67502 | 35907 ft | 470 kts | 285° |
| 2026-05-07 16:09 | -40.04406 | -174.75653 | 35908 ft | 470 kts | 285° |
| 2026-05-07 16:10 | -40.02560 | -174.83868 | 35907 ft | 470 kts | 285° |
| 2026-05-07 16:10 | -40.00709 | -174.92061 | 35907 ft | 471 kts | 285° |
| 2026-05-07 16:11 | -39.98854 | -175.00245 | 35898 ft | 470 kts | 286° |
| 2026-05-07 16:11 | -39.97001 | -175.08392 | 35887 ft | 468 kts | 286° |
| 2026-05-07 16:12 | -39.95145 | -175.16521 | 35889 ft | 468 kts | 286° |
| 2026-05-07 16:12 | -39.93295 | -175.24600 | 35890 ft | 469 kts | 286° |
| 2026-05-07 16:13 | -39.91420 | -175.32758 | 35886 ft | 470 kts | 286° |
| 2026-05-07 16:13 | -39.89540 | -175.40904 | 35892 ft | 470 kts | 286° |
| 2026-05-07 16:14 | -39.87653 | -175.49066 | 35885 ft | 470 kts | 286° |
| 2026-05-07 16:14 | -39.85758 | -175.57214 | 35890 ft | 471 kts | 286° |
| 2026-05-07 16:15 | -39.83854 | -175.65378 | 35890 ft | 471 kts | 286° |
| 2026-05-07 16:15 | -39.81952 | -175.73500 | 35889 ft | 471 kts | 286° |
| 2026-05-07 16:16 | -39.80038 | -175.81657 | 35888 ft | 472 kts | 286° |
| 2026-05-07 16:16 | -39.78112 | -175.89815 | 35890 ft | 472 kts | 286° |
| 2026-05-07 16:17 | -39.76181 | -175.97977 | 35890 ft | 472 kts | 286° |
| 2026-05-07 16:17 | -39.74253 | -176.06110 | 35888 ft | 472 kts | 286° |
| 2026-05-07 16:18 | -39.72637 | -176.12890 | 35891 ft | 472 kts | 286° |
| 2026-05-07 16:18 | -39.70370 | -176.22373 | 35888 ft | 472 kts | 286° |
| 2026-05-07 16:19 | -39.68417 | -176.30520 | 35889 ft | 472 kts | 286° |
| 2026-05-07 16:19 | -39.66781 | -176.37327 | 35889 ft | 472 kts | 286° |
| 2026-05-07 16:20 | -39.64818 | -176.45459 | 35889 ft | 472 kts | 286° |
| 2026-05-07 16:20 | -39.62861 | -176.53535 | 35889 ft | 472 kts | 287° |
| 2026-05-07 16:21 | -39.60888 | -176.61650 | 35887 ft | 471 kts | 287° |
| 2026-05-07 16:21 | -39.58912 | -176.69757 | 35890 ft | 472 kts | 287° |
| 2026-05-07 16:22 | -39.56926 | -176.77872 | 35887 ft | 471 kts | 287° |
| 2026-05-07 16:22 | -39.54940 | -176.85962 | 35888 ft | 471 kts | 287° |
| 2026-05-07 16:23 | -39.52947 | -176.94048 | 35890 ft | 471 kts | 287° |
| 2026-05-07 16:23 | -39.50949 | -177.02129 | 35889 ft | 471 kts | 287° |
| 2026-05-07 16:24 | -39.48958 | -177.10161 | 35888 ft | 471 kts | 287° |
| 2026-05-07 16:24 | -39.46947 | -177.18239 | 35890 ft | 471 kts | 287° |
| 2026-05-07 16:25 | -39.44929 | -177.26318 | 35888 ft | 471 kts | 287° |
| 2026-05-07 16:25 | -39.42905 | -177.34397 | 35889 ft | 471 kts | 287° |
| 2026-05-07 16:26 | -39.40881 | -177.42453 | 35886 ft | 471 kts | 287° |
| 2026-05-07 16:26 | -39.38846 | -177.50516 | 35862 ft | 471 kts | 287° |
| 2026-05-07 16:27 | -39.36825 | -177.58504 | 35879 ft | 471 kts | 287° |
| 2026-05-07 16:27 | -39.34784 | -177.66544 | 35875 ft | 471 kts | 287° |
| 2026-05-07 16:28 | -39.32733 | -177.74587 | 35861 ft | 471 kts | 287° |
| 2026-05-07 16:28 | -39.30677 | -177.82632 | 35861 ft | 471 kts | 287° |
| 2026-05-07 16:29 | -39.28617 | -177.90666 | 35864 ft | 471 kts | 287° |
| 2026-05-07 16:29 | -39.26551 | -177.98698 | 35871 ft | 471 kts | 287° |
| 2026-05-07 16:30 | -39.24494 | -178.06671 | 35875 ft | 471 kts | 287° |
| 2026-05-07 16:30 | -39.22404 | -178.14745 | 35875 ft | 471 kts | 288° |
| 2026-05-07 16:31 | -39.20320 | -178.22766 | 35873 ft | 471 kts | 288° |
| 2026-05-07 16:31 | -39.18243 | -178.30732 | 35876 ft | 471 kts | 288° |
| 2026-05-07 16:32 | -39.16150 | -178.38740 | 35865 ft | 471 kts | 288° |
| 2026-05-07 16:32 | -39.14066 | -178.46689 | 35869 ft | 471 kts | 288° |
| 2026-05-07 16:33 | -39.11960 | -178.54692 | 35866 ft | 471 kts | 288° |
| 2026-05-07 16:33 | -39.09851 | -178.62679 | 35874 ft | 470 kts | 288° |
| 2026-05-07 16:34 | -39.07741 | -178.70646 | 35868 ft | 470 kts | 288° |
| 2026-05-07 16:34 | -39.05631 | -178.78590 | 35876 ft | 470 kts | 288° |
| 2026-05-07 16:35 | -39.03503 | -178.86576 | 35867 ft | 470 kts | 288° |
| 2026-05-07 16:35 | -39.01380 | -178.94516 | 35870 ft | 470 kts | 288° |
| 2026-05-07 16:36 | -38.99263 | -179.02407 | 35870 ft | 469 kts | 288° |
| 2026-05-07 16:36 | -38.97126 | -179.10354 | 35876 ft | 469 kts | 288° |
| 2026-05-07 16:37 | -38.94989 | -179.18278 | 35862 ft | 469 kts | 288° |
| 2026-05-07 16:37 | -38.92858 | -179.26153 | 35876 ft | 469 kts | 288° |
| 2026-05-07 16:38 | -38.90704 | -179.34081 | 35876 ft | 469 kts | 288° |
| 2026-05-07 16:38 | -38.88541 | -179.42022 | 35869 ft | 468 kts | 288° |
| 2026-05-07 16:39 | -38.86390 | -179.49899 | 35869 ft | 468 kts | 288° |
| 2026-05-07 16:39 | -38.84237 | -179.57755 | 35874 ft | 468 kts | 288° |
| 2026-05-07 16:40 | -38.82070 | -179.65639 | 35863 ft | 468 kts | 288° |
| 2026-05-07 16:40 | -38.79912 | -179.73466 | 35874 ft | 468 kts | 289° |
| 2026-05-07 16:41 | -38.77737 | -179.81332 | 35878 ft | 468 kts | 289° |
| 2026-05-07 16:41 | -38.75559 | -179.89185 | 35875 ft | 469 kts | 289° |
| 2026-05-07 16:42 | -38.73375 | -179.97035 | 35873 ft | 469 kts | 289° |
| 2026-05-07 16:42 | -38.71179 | 179.95101 | 35879 ft | 468 kts | 289° |
| 2026-05-07 16:43 | -38.68991 | 179.87281 | 35952 ft | 465 kts | 289° |
| 2026-05-07 16:43 | -38.66808 | 179.79503 | 36051 ft | 465 kts | 289° |
| 2026-05-07 16:44 | -38.64620 | 179.71729 | 36051 ft | 466 kts | 289° |
| 2026-05-07 16:44 | -38.62409 | 179.63902 | 36053 ft | 465 kts | 289° |
| 2026-05-07 16:45 | -38.60204 | 179.56121 | 36054 ft | 465 kts | 289° |
| 2026-05-07 16:45 | -38.58014 | 179.48410 | 36054 ft | 465 kts | 289° |
| 2026-05-07 16:46 | -38.55803 | 179.40649 | 36061 ft | 464 kts | 289° |
| 2026-05-07 16:46 | -38.53590 | 179.32895 | 36063 ft | 464 kts | 289° |
| 2026-05-07 16:47 | -38.51371 | 179.25154 | 36057 ft | 463 kts | 289° |
| 2026-05-07 16:47 | -38.49151 | 179.17435 | 36053 ft | 463 kts | 289° |
| 2026-05-07 16:48 | -38.46927 | 179.09720 | 36047 ft | 462 kts | 289° |
| 2026-05-07 16:48 | -38.44703 | 179.02030 | 36063 ft | 462 kts | 289° |
| 2026-05-07 16:49 | -38.42477 | 178.94348 | 36062 ft | 461 kts | 289° |
| 2026-05-07 16:49 | -38.40264 | 178.86735 | 36052 ft | 460 kts | 289° |
| 2026-05-07 16:50 | -38.38038 | 178.79099 | 36056 ft | 459 kts | 290° |
| 2026-05-07 16:50 | -38.35806 | 178.71466 | 36054 ft | 460 kts | 290° |
| 2026-05-07 16:51 | -38.33568 | 178.63839 | 36062 ft | 460 kts | 290° |
| 2026-05-07 16:51 | -38.31328 | 178.56217 | 36052 ft | 458 kts | 290° |
| 2026-05-07 16:52 | -38.29085 | 178.48613 | 36057 ft | 459 kts | 290° |
| 2026-05-07 16:52 | -38.26835 | 178.41004 | 36057 ft | 459 kts | 290° |
| 2026-05-07 16:53 | -38.24585 | 178.33415 | 36059 ft | 458 kts | 290° |
| 2026-05-07 16:53 | -38.22343 | 178.25876 | 36068 ft | 459 kts | 290° |
| 2026-05-07 16:54 | -38.20085 | 178.18302 | 36067 ft | 458 kts | 290° |
| 2026-05-07 16:54 | -38.17825 | 178.10744 | 36062 ft | 457 kts | 290° |
| 2026-05-07 16:55 | -38.15560 | 178.03189 | 36066 ft | 458 kts | 290° |
| 2026-05-07 16:55 | -38.13288 | 177.95630 | 36064 ft | 458 kts | 290° |
| 2026-05-07 16:56 | -38.11010 | 177.88080 | 36062 ft | 457 kts | 290° |
| 2026-05-07 16:56 | -38.07589 | 177.76769 | 36062 ft | 457 kts | 290° |
| 2026-05-07 16:57 | -38.05301 | 177.69231 | 36068 ft | 458 kts | 290° |
| 2026-05-07 16:57 | -38.03009 | 177.61704 | 36064 ft | 457 kts | 290° |
| 2026-05-07 16:58 | -38.00712 | 177.54177 | 36072 ft | 457 kts | 290° |
| 2026-05-07 16:58 | -37.98430 | 177.46722 | 36061 ft | 456 kts | 290° |
| 2026-05-07 16:59 | -37.96129 | 177.39222 | 36063 ft | 456 kts | 290° |
| 2026-05-07 16:59 | -37.93821 | 177.31721 | 36066 ft | 456 kts | 291° |
| 2026-05-07 17:00 | -37.91514 | 177.24243 | 36074 ft | 455 kts | 291° |
| 2026-05-07 17:00 | -37.89204 | 177.16775 | 36079 ft | 455 kts | 291° |
| 2026-05-07 17:01 | -37.86893 | 177.09326 | 36072 ft | 454 kts | 291° |
| 2026-05-07 17:01 | -37.84594 | 177.01933 | 36076 ft | 454 kts | 291° |
| 2026-05-07 17:02 | -37.82282 | 176.94519 | 36076 ft | 452 kts | 291° |
| 2026-05-07 17:02 | -37.79970 | 176.87123 | 36075 ft | 452 kts | 292° |
| 2026-05-07 17:03 | -37.77658 | 176.79747 | 36072 ft | 451 kts | 292° |
| 2026-05-07 17:03 | -37.75344 | 176.72387 | 36078 ft | 450 kts | 292° |
| 2026-05-07 17:04 | -37.73052 | 176.65111 | 35859 ft | 440 kts | 292° |
| 2026-05-07 17:04 | -37.71929 | 176.61550 | 35477 ft | 435 kts | 292° |
| 2026-05-07 17:04 | -37.70813 | 176.58016 | 35012 ft | 431 kts | 292° |
| 2026-05-07 17:05 | -37.69706 | 176.54517 | 34505 ft | 427 kts | 293° |
| 2026-05-07 17:05 | -37.68605 | 176.51045 | 34004 ft | 424 kts | 293° |
| 2026-05-07 17:05 | -37.67528 | 176.47651 | 33536 ft | 421 kts | 293° |
| 2026-05-07 17:05 | -37.66442 | 176.44233 | 33021 ft | 417 kts | 293° |
| 2026-05-07 17:06 | -37.65364 | 176.40845 | 32534 ft | 415 kts | 294° |
| 2026-05-07 17:06 | -37.64292 | 176.37477 | 32043 ft | 411 kts | 294° |
| 2026-05-07 17:06 | -37.63228 | 176.34138 | 31549 ft | 409 kts | 294° |
| 2026-05-07 17:06 | -37.62168 | 176.30816 | 31085 ft | 406 kts | 294° |
| 2026-05-07 17:07 | -37.61469 | 176.28627 | 30756 ft | 404 kts | 294° |
| 2026-05-07 17:07 | -37.60420 | 176.25346 | 30269 ft | 402 kts | 294° |
| 2026-05-07 17:07 | -37.59040 | 176.21035 | 29636 ft | 398 kts | 294° |
| 2026-05-07 17:07 | -37.58338 | 176.18844 | 29304 ft | 397 kts | 294° |
| 2026-05-07 17:08 | -37.56973 | 176.14591 | 28665 ft | 394 kts | 294° |
| 2026-05-07 17:08 | -37.56278 | 176.12429 | 28340 ft | 392 kts | 294° |
| 2026-05-07 17:08 | -37.55270 | 176.09291 | 27866 ft | 390 kts | 294° |
| 2026-05-07 17:08 | -37.54251 | 176.06130 | 27395 ft | 388 kts | 294° |
| 2026-05-07 17:09 | -37.53237 | 176.02984 | 26913 ft | 386 kts | 294° |
| 2026-05-07 17:09 | -37.52231 | 175.99865 | 26443 ft | 384 kts | 294° |
| 2026-05-07 17:09 | -37.51227 | 175.96757 | 25977 ft | 381 kts | 294° |
| 2026-05-07 17:09 | -37.50229 | 175.93668 | 25508 ft | 379 kts | 294° |
| 2026-05-07 17:10 | -37.49235 | 175.90599 | 25044 ft | 377 kts | 294° |
| 2026-05-07 17:10 | -37.48248 | 175.87551 | 24583 ft | 375 kts | 294° |
| 2026-05-07 17:10 | -37.47263 | 175.84511 | 24127 ft | 374 kts | 293° |
| 2026-05-07 17:10 | -37.46283 | 175.81493 | 23673 ft | 372 kts | 293° |
| 2026-05-07 17:11 | -37.45309 | 175.78495 | 23222 ft | 370 kts | 294° |
| 2026-05-07 17:11 | -37.44222 | 175.75574 | 22775 ft | 367 kts | 299° |
| 2026-05-07 17:11 | -37.42899 | 175.72838 | 22325 ft | 364 kts | 304° |
| 2026-05-07 17:11 | -37.41489 | 175.70256 | 21894 ft | 362 kts | 304° |
| 2026-05-07 17:12 | -37.40062 | 175.67658 | 21453 ft | 360 kts | 304° |
| 2026-05-07 17:12 | -37.38644 | 175.65074 | 21014 ft | 358 kts | 304° |
| 2026-05-07 17:12 | -37.37231 | 175.62494 | 20585 ft | 356 kts | 304° |
| 2026-05-07 17:12 | -37.35832 | 175.59933 | 20144 ft | 355 kts | 304° |
| 2026-05-07 17:13 | -37.34437 | 175.57378 | 19710 ft | 353 kts | 304° |
| 2026-05-07 17:13 | -37.33052 | 175.54841 | 19276 ft | 352 kts | 304° |
| 2026-05-07 17:13 | -37.31672 | 175.52313 | 18842 ft | 350 kts | 304° |
| 2026-05-07 17:13 | -37.30296 | 175.49791 | 18408 ft | 349 kts | 304° |
| 2026-05-07 17:14 | -37.28925 | 175.47281 | 17970 ft | 348 kts | 304° |
| 2026-05-07 17:14 | -37.27557 | 175.44780 | 17539 ft | 346 kts | 304° |
| 2026-05-07 17:14 | -37.26195 | 175.42290 | 17101 ft | 345 kts | 304° |
| 2026-05-07 17:14 | -37.24839 | 175.39815 | 16669 ft | 344 kts | 304° |
| 2026-05-07 17:15 | -37.23484 | 175.37342 | 16238 ft | 343 kts | 304° |
| 2026-05-07 17:15 | -37.22155 | 175.34919 | 15811 ft | 341 kts | 304° |
| 2026-05-07 17:15 | -37.20835 | 175.32460 | 15369 ft | 336 kts | 300° |
| 2026-05-07 17:15 | -37.20016 | 175.29723 | 14958 ft | 335 kts | 282° |
| 2026-05-07 17:16 | -37.19831 | 175.26809 | 14545 ft | 335 kts | 268° |
| 2026-05-07 17:16 | -37.20182 | 175.23925 | 14134 ft | 334 kts | 261° |
| 2026-05-07 17:16 | -37.20642 | 175.21075 | 13717 ft | 334 kts | 261° |
| 2026-05-07 17:16 | -37.21111 | 175.18228 | 13296 ft | 333 kts | 261° |
| 2026-05-07 17:17 | -37.21570 | 175.15389 | 12894 ft | 331 kts | 261° |
| 2026-05-07 17:17 | -37.22019 | 175.12556 | 12480 ft | 331 kts | 261° |
| 2026-05-07 17:17 | -37.22467 | 175.09723 | 12064 ft | 330 kts | 261° |
| 2026-05-07 17:17 | -37.22899 | 175.06937 | 11655 ft | 328 kts | 262° |
| 2026-05-07 17:18 | -37.23330 | 175.04125 | 11249 ft | 327 kts | 262° |
| 2026-05-07 17:18 | -37.23756 | 175.01322 | 10843 ft | 326 kts | 262° |
| 2026-05-07 17:18 | -37.24176 | 174.98544 | 10598 ft | 320 kts | 262° |
| 2026-05-07 17:18 | -37.24588 | 174.95833 | 10444 ft | 311 kts | 262° |
| 2026-05-07 17:19 | -37.24986 | 174.93204 | 10302 ft | 302 kts | 262° |
| 2026-05-07 17:19 | -37.25372 | 174.90645 | 10173 ft | 293 kts | 262° |
| 2026-05-07 17:19 | -37.25746 | 174.88163 | 9974 ft | 287 kts | 262° |
| 2026-05-07 17:19 | -37.26116 | 174.85705 | 9638 ft | 287 kts | 262° |
| 2026-05-07 17:20 | -37.26479 | 174.83280 | 9313 ft | 283 kts | 264° |
| 2026-05-07 17:20 | -37.26397 | 174.80875 | 8983 ft | 273 kts | 288° |
| 2026-05-07 17:20 | -37.25633 | 174.78726 | 8704 ft | 267 kts | 300° |
| 2026-05-07 17:20 | -37.24721 | 174.76694 | 8406 ft | 266 kts | 301° |
| 2026-05-07 17:21 | -37.23809 | 174.74682 | 8106 ft | 265 kts | 301° |
| 2026-05-07 17:21 | -37.22901 | 174.72670 | 7809 ft | 264 kts | 301° |
| 2026-05-07 17:21 | -37.21997 | 174.70664 | 7502 ft | 264 kts | 301° |
| 2026-05-07 17:21 | -37.21099 | 174.68664 | 7219 ft | 262 kts | 301° |
| 2026-05-07 17:22 | -37.20209 | 174.66674 | 6927 ft | 261 kts | 301° |
| 2026-05-07 17:22 | -37.19323 | 174.64693 | 6628 ft | 260 kts | 301° |
| 2026-05-07 17:22 | -37.18443 | 174.62722 | 6336 ft | 258 kts | 301° |
| 2026-05-07 17:22 | -37.17579 | 174.60789 | 6042 ft | 256 kts | 301° |
| 2026-05-07 17:23 | -37.16715 | 174.58851 | 5782 ft | 252 kts | 302° |
| 2026-05-07 17:23 | -37.15632 | 174.57232 | 5522 ft | 239 kts | 326° |
| 2026-05-07 17:23 | -37.14175 | 174.56306 | 5246 ft | 234 kts | 340° |
| 2026-05-07 17:23 | -37.12637 | 174.55649 | 4981 ft | 232 kts | 342° |
| 2026-05-07 17:24 | -37.11112 | 174.55018 | 4712 ft | 230 kts | 342° |
| 2026-05-07 17:24 | -37.09602 | 174.54388 | 4450 ft | 228 kts | 342° |
| 2026-05-07 17:24 | -37.08109 | 174.53766 | 4188 ft | 224 kts | 344° |
| 2026-05-07 17:24 | -37.06594 | 174.53615 | 3906 ft | 218 kts | 11° |
| 2026-05-07 17:25 | -37.05201 | 174.54311 | 3665 ft | 216 kts | 32° |
| 2026-05-07 17:25 | -37.04136 | 174.55634 | 3426 ft | 218 kts | 55° |
| 2026-05-07 17:25 | -37.03635 | 174.57407 | 3265 ft | 218 kts | 81° |
| 2026-05-07 17:25 | -37.03809 | 174.59270 | 3184 ft | 222 kts | 107° |
| 2026-05-07 17:26 | -37.04627 | 174.60938 | 3130 ft | 229 kts | 129° |
| 2026-05-07 17:26 | -37.05931 | 174.62090 | 3098 ft | 233 kts | 157° |
| 2026-05-07 17:26 | -37.07482 | 174.62737 | 3110 ft | 237 kts | 160° |
| 2026-05-07 17:26 | -37.09052 | 174.63395 | 3108 ft | 238 kts | 159° |
| 2026-05-07 17:27 | -37.10612 | 174.64060 | 3099 ft | 236 kts | 159° |
| 2026-05-07 17:27 | -37.12172 | 174.64675 | 3083 ft | 234 kts | 170° |
| 2026-05-07 17:27 | -37.13792 | 174.64508 | 3114 ft | 238 kts | 202° |
| 2026-05-07 17:27 | -37.15182 | 174.63416 | 3101 ft | 237 kts | 230° |
| 2026-05-07 17:28 | -37.16015 | 174.61699 | 3103 ft | 228 kts | 258° |
| 2026-05-07 17:28 | -37.16124 | 174.59774 | 3093 ft | 219 kts | 285° |
| 2026-05-07 17:28 | -37.15562 | 174.58047 | 3098 ft | 213 kts | 309° |
| 2026-05-07 17:28 | -37.14588 | 174.56729 | 3097 ft | 207 kts | 331° |
| 2026-05-07 17:29 | -37.13275 | 174.56043 | 3128 ft | 205 kts | 343° |
| 2026-05-07 17:29 | -37.11917 | 174.55451 | 3115 ft | 206 kts | 342° |
| 2026-05-07 17:29 | -37.10556 | 174.54853 | 3133 ft | 206 kts | 345° |
| 2026-05-07 17:29 | -37.09202 | 174.54790 | 3116 ft | 187 kts | 18° |
| 2026-05-07 17:30 | -37.08264 | 174.55731 | 3096 ft | 168 kts | 52° |
| 2026-05-07 17:30 | -37.07633 | 174.56967 | 3087 ft | 167 kts | 56° |
| 2026-05-07 17:30 | -37.07082 | 174.58268 | 3004 ft | 170 kts | 59° |
| 2026-05-07 17:30 | -37.06572 | 174.59576 | 2855 ft | 168 kts | 60° |
| 2026-05-07 17:31 | -37.06113 | 174.60917 | 2664 ft | 168 kts | 64° |
| 2026-05-07 17:31 | -37.05711 | 174.62288 | 2451 ft | 167 kts | 66° |
| 2026-05-07 17:31 | -37.05327 | 174.63655 | 2235 ft | 167 kts | 67° |
| 2026-05-07 17:31 | -37.04949 | 174.65036 | 2004 ft | 165 kts | 68° |
| 2026-05-07 17:32 | -37.04604 | 174.66298 | 1777 ft | 141 kts | 67° |
| 2026-05-07 17:32 | -37.04289 | 174.67432 | 1612 ft | 137 kts | 67° |
| 2026-05-07 17:32 | -37.03979 | 174.68555 | 1437 ft | 137 kts | 67° |
| 2026-05-07 17:32 | -37.03670 | 174.69678 | 1261 ft | 136 kts | 68° |
| 2026-05-07 17:33 | -37.03360 | 174.70801 | 1078 ft | 136 kts | 68° |
| 2026-05-07 17:33 | -37.03056 | 174.71908 | 902 ft | 136 kts | 68° |
| 2026-05-07 17:33 | -37.02747 | 174.73032 | 719 ft | 136 kts | 68° |
| 2026-05-07 17:33 | -37.02438 | 174.74153 | 537 ft | 137 kts | 68° |
| 2026-05-07 17:34 | -37.02127 | 174.75280 | 357 ft | 138 kts | 68° |
| 2026-05-07 17:34 | -37.01810 | 174.76420 | 180 ft | 137 kts | 68° |
| 2026-05-07 17:34 | -37.01503 | 174.77539 | 42 ft | 134 kts | 69° |
| 2026-05-07 17:34 | -37.01216 | 174.78578 | 30 ft | 113 kts | 72° |
| 2026-05-07 17:35 | -37.01013 | 174.79323 | 30 ft | 68 kts | 70° |
| 2026-05-07 17:35 | -37.00826 | 174.79683 | 30 ft | 33 kts | 39° |
| 2026-05-07 17:35 | -37.00699 | 174.79700 | 30 ft | 18 kts | 340° |
| 2026-05-07 17:35 | -37.00666 | 174.79565 | 30 ft | 18 kts | 255° |
| 2026-05-07 17:36 | -37.00708 | 174.79410 | 30 ft | 23 kts | 251° |
| 2026-05-07 17:36 | -37.00791 | 174.79117 | 30 ft | 48 kts | 250° |
| 2026-05-07 17:36 | -37.00901 | 174.78717 | 30 ft | 48 kts | 251° |
| 2026-05-07 17:36 | -37.00974 | 174.78383 | 30 ft | 18 kts | 298° |
| 2026-05-07 17:37 | -37.00866 | 174.78312 | 30 ft | 17 kts | 326° |
| 2026-05-07 17:37 | -37.00835 | 174.78284 | 30 ft | 1 kts | 323° |
| 2026-05-07 17:37 | -37.00830 | 174.78279 | 30 ft | 0 kts | 324° |